Observation data for Dell City 1N on 07/11/2018      Previous  Date       Current Mesonet Observations  Soil Data  Daily Summary Page  Observations in Plain Language
KDC1 110500Z 16003KT 23/19 A3016 RMK A01 T02260191  RH  081%=      5-min Rain = 0
KDC1 110501Z 16004KT 23/19 A3016 RMK A01 T02270188  RH  079%=      5-min Rain = 0
KDC1 110502Z 16004KT 23/19 A3016 RMK A01 T02280187  RH  078%=      5-min Rain = 0
KDC1 110503Z 15004KT 23/19 A3016 RMK A01 T02290186  RH  076%=      5-min Rain = 0
KDC1 110504Z 15004KT 23/19 A3016 RMK A01 T02300187  RH  077%=      5-min Rain = 0
KDC1 110505Z 15004KT 23/19 A3016 RMK A01 T02300188  RH  077%=      5-min Rain = 0
KDC1 110506Z 15004KT 23/19 A3016 RMK A01 T02300189  RH  077%=      5-min Rain = 0
KDC1 110507Z 15004KT 23/19 A3016 RMK A01 T02300191  RH  079%=      5-min Rain = 0
KDC1 110508Z 15004KT 23/19 A3016 RMK A01 T02290191  RH  079%=      5-min Rain = 0
KDC1 110509Z 16004KT 23/19 A3016 RMK A01 T02290190  RH  079%=      5-min Rain = 0
KDC1 110510Z 15004KT 23/19 A3016 RMK A01 T02290190  RH  079%=      5-min Rain = 0
KDC1 110511Z 15004KT 23/19 A3016 RMK A01 T02280190  RH  079%=      5-min Rain = 0
KDC1 110512Z 16004KT 23/19 A3017 RMK A01 T02290188  RH  078%=      5-min Rain = 0
KDC1 110513Z 16004KT 23/19 A3017 RMK A01 T02290187  RH  077%=      5-min Rain = 0
KDC1 110514Z 16003KT 23/19 A3017 RMK A01 T02290186  RH  077%=      5-min Rain = 0
KDC1 110515Z 16004KT 23/19 A3017 RMK A01 T02290186  RH  077%=      5-min Rain = 0
KDC1 110516Z 16004KT 23/19 A3017 RMK A01 T02290186  RH  076%=      5-min Rain = 0
KDC1 110517Z 16004KT 23/19 A3017 RMK A01 T02290187  RH  077%=      5-min Rain = 0
KDC1 110518Z 17004KT 23/19 A3017 RMK A01 T02290189  RH  078%=      5-min Rain = 0
KDC1 110519Z 17003KT 23/19 A3017 RMK A01 T02290189  RH  078%=      5-min Rain = 0
KDC1 110520Z 17004KT 23/19 A3017 RMK A01 T02290188  RH  078%=      5-min Rain = 0
KDC1 110521Z 17004KT 23/19 A3017 RMK A01 T02280188  RH  078%=      5-min Rain = 0
KDC1 110522Z 17003KT 23/19 A3017 RMK A01 T02280187  RH  077%=      5-min Rain = 0
KDC1 110523Z 17003KT 23/19 A3017 RMK A01 T02280186  RH  077%=      5-min Rain = 0
KDC1 110524Z 17004KT 23/19 A3017 RMK A01 T02280185  RH  077%=      5-min Rain = 0
KDC1 110525Z 17003KT 23/19 A3017 RMK A01 T02280186  RH  077%=      5-min Rain = 0
KDC1 110526Z 17003KT 23/19 A3017 RMK A01 T02280187  RH  078%=      5-min Rain = 0
KDC1 110527Z 17003KT 23/19 A3017 RMK A01 T02280188  RH  078%=      5-min Rain = 0
KDC1 110528Z 17003KT 23/19 A3017 RMK A01 T02270188  RH  078%=      5-min Rain = 0
KDC1 110529Z 17003KT 23/19 A3017 RMK A01 T02260187  RH  078%=      5-min Rain = 0
KDC1 110530Z 18003KT 23/19 A3017 RMK A01 T02270188  RH  079%=      5-min Rain = 0
KDC1 110531Z 18002KT 23/19 A3017 RMK A01 T02260186  RH  078%=      5-min Rain = 0
KDC1 110532Z 18002KT 23/19 A3017 RMK A01 T02260187  RH  078%=      5-min Rain = 0
KDC1 110533Z 17003KT 23/19 A3017 RMK A01 T02260186  RH  078%=      5-min Rain = 0
KDC1 110534Z 17003KT 23/19 A3017 RMK A01 T02260186  RH  078%=      5-min Rain = 0
KDC1 110535Z 16003KT 23/19 A3017 RMK A01 T02270186  RH  078%=      5-min Rain = 0
KDC1 110536Z 16004KT 23/19 A3017 RMK A01 T02270187  RH  078%=      5-min Rain = 0
KDC1 110537Z 15004KT 23/19 A3017 RMK A01 T02270189  RH  079%=      5-min Rain = 0
KDC1 110538Z 14004KT 23/19 A3017 RMK A01 T02260187  RH  079%=      5-min Rain = 0
KDC1 110539Z 15005KT 23/19 A3017 RMK A01 T02260188  RH  079%=      5-min Rain = 0
KDC1 110540Z 16005KT 23/19 A3017 RMK A01 T02250188  RH  079%=      5-min Rain = 0
KDC1 110541Z 15004KT 22/19 A3017 RMK A01 T02240188  RH  080%=      5-min Rain = 0
KDC1 110542Z 15003KT 22/19 A3017 RMK A01 T02240189  RH  081%=      5-min Rain = 0
KDC1 110543Z 15004KT 22/19 A3017 RMK A01 T02230189  RH  081%=      5-min Rain = 0
KDC1 110544Z 15004KT 22/19 A3017 RMK A01 T02220187  RH  081%=      5-min Rain = 0
KDC1 110545Z 16004KT 22/19 A3017 RMK A01 T02220190  RH  082%=      5-min Rain = 0
KDC1 110546Z 16004KT 22/19 A3017 RMK A01 T02210187  RH  081%=      5-min Rain = 0
KDC1 110547Z 16004KT 22/19 A3017 RMK A01 T02210185  RH  080%=      5-min Rain = 0
KDC1 110548Z 17004KT 22/18 A3017 RMK A01 T02220181  RH  078%=      5-min Rain = 0
KDC1 110549Z 17004KT 22/18 A3017 RMK A01 T02230180  RH  076%=      5-min Rain = 0
KDC1 110550Z 17004KT 23/18 A3017 RMK A01 T02250182  RH  077%=      5-min Rain = 0
KDC1 110551Z 17004KT 23/18 A3017 RMK A01 T02250180  RH  076%=      5-min Rain = 0
KDC1 110552Z 17004KT 23/18 A3017 RMK A01 T02260179  RH  075%=      5-min Rain = 0
KDC1 110553Z 17005KT 23/18 A3018 RMK A01 T02270178  RH  074%=      5-min Rain = 0
KDC1 110554Z 17005KT 23/18 A3018 RMK A01 T02270178  RH  074%=      5-min Rain = 0
KDC1 110555Z 16005KT 23/18 A3018 RMK A01 T02280177  RH  073%=      5-min Rain = 0
KDC1 110556Z 17005KT 23/18 A3018 RMK A01 T02280176  RH  072%=      5-min Rain = 0
KDC1 110557Z 17004KT 23/18 A3018 RMK A01 T02280177  RH  073%=      5-min Rain = 0
KDC1 110558Z 17004KT 23/18 A3017 RMK A01 T02280176  RH  072%=      5-min Rain = 0
KDC1 110559Z 18003KT 23/18 A3017 RMK A01 T02290176  RH  072%=      5-min Rain = 0
KDC1 110600Z 17004KT 23/18 A3017 RMK A01 T02290178  RH  073%=      5-min Rain = 0
KDC1 110601Z 17004KT 23/18 A3017 RMK A01 T02280178  RH  073%=      5-min Rain = 0
KDC1 110602Z 17005KT 23/18 A3017 RMK A01 T02280178  RH  073%=      5-min Rain = 0
KDC1 110603Z 17004KT 23/18 A3017 RMK A01 T02280179  RH  074%=      5-min Rain = 0
KDC1 110604Z 16004KT 23/18 A3017 RMK A01 T02270180  RH  075%=      5-min Rain = 0
KDC1 110605Z 16005KT 23/18 A3017 RMK A01 T02260181  RH  075%=      5-min Rain = 0
KDC1 110606Z 16004KT 23/18 A3017 RMK A01 T02250181  RH  076%=      5-min Rain = 0
KDC1 110607Z 17004KT 22/18 A3017 RMK A01 T02240180  RH  076%=      5-min Rain = 0
KDC1 110608Z 17004KT 22/18 A3017 RMK A01 T02240179  RH  076%=      5-min Rain = 0
KDC1 110609Z 17004KT 22/18 A3017 RMK A01 T02240179  RH  076%=      5-min Rain = 0
KDC1 110610Z 16004KT 22/18 A3017 RMK A01 T02240181  RH  076%=      5-min Rain = 0
KDC1 110611Z 16004KT 22/18 A3017 RMK A01 T02240178  RH  075%=      5-min Rain = 0
KDC1 110612Z 16005KT 22/18 A3017 RMK A01 T02240178  RH  075%=      5-min Rain = 0
KDC1 110613Z 16005KT 22/18 A3017 RMK A01 T02240178  RH  075%=      5-min Rain = 0
KDC1 110614Z 16005KT 23/18 A3017 RMK A01 T02250180  RH  076%=      5-min Rain = 0
KDC1 110615Z 16005KT 22/18 A3017 RMK A01 T02240178  RH  075%=      5-min Rain = 0
KDC1 110616Z 16005KT 22/18 A3017 RMK A01 T02240178  RH  075%=      5-min Rain = 0
KDC1 110617Z 16005KT 22/18 A3017 RMK A01 T02240178  RH  075%=      5-min Rain = 0
KDC1 110618Z 16005KT 22/18 A3017 RMK A01 T02240177  RH  075%=      5-min Rain = 0
KDC1 110619Z 17004KT 22/18 A3017 RMK A01 T02240177  RH  075%=      5-min Rain = 0
KDC1 110620Z 17004KT 22/18 A3017 RMK A01 T02230177  RH  075%=      5-min Rain = 0
KDC1 110621Z 16004KT 22/18 A3017 RMK A01 T02230178  RH  075%=      5-min Rain = 0
KDC1 110622Z 16004KT 22/18 A3017 RMK A01 T02230178  RH  075%=      5-min Rain = 0
KDC1 110623Z 16004KT 22/18 A3017 RMK A01 T02230178  RH  076%=      5-min Rain = 0
KDC1 110624Z 16005KT 22/18 A3017 RMK A01 T02230179  RH  076%=      5-min Rain = 0
KDC1 110625Z 16005KT 22/18 A3017 RMK A01 T02220178  RH  076%=      5-min Rain = 0
KDC1 110626Z 15005KT 22/18 A3017 RMK A01 T02230176  RH  075%=      5-min Rain = 0
KDC1 110627Z 15005KT 22/18 A3017 RMK A01 T02230178  RH  076%=      5-min Rain = 0
KDC1 110628Z 15005KT 22/18 A3017 RMK A01 T02230180  RH  077%=      5-min Rain = 0
KDC1 110629Z 16005KT 22/18 A3017 RMK A01 T02210180  RH  077%=      5-min Rain = 0
KDC1 110630Z 16005KT 22/18 A3017 RMK A01 T02200180  RH  078%=      5-min Rain = 0
KDC1 110631Z 16005KT 22/18 A3017 RMK A01 T02190179  RH  078%=      5-min Rain = 0
KDC1 110632Z 17004KT 22/18 A3017 RMK A01 T02190178  RH  078%=      5-min Rain = 0
KDC1 110633Z 17004KT 22/18 A3017 RMK A01 T02190178  RH  078%=      5-min Rain = 0
KDC1 110634Z 17004KT 22/18 A3017 RMK A01 T02190177  RH  077%=      5-min Rain = 0
KDC1 110635Z 16004KT 22/18 A3017 RMK A01 T02190178  RH  077%=      5-min Rain = 0
KDC1 110636Z 16005KT 22/18 A3017 RMK A01 T02190178  RH  077%=      5-min Rain = 0
KDC1 110637Z 16005KT 22/18 A3017 RMK A01 T02200177  RH  077%=      5-min Rain = 0
KDC1 110638Z 16005KT 22/18 A3017 RMK A01 T02200178  RH  077%=      5-min Rain = 0
KDC1 110639Z 16005KT 22/18 A3017 RMK A01 T02200179  RH  077%=      5-min Rain = 0
KDC1 110640Z 16004KT 22/18 A3017 RMK A01 T02200179  RH  077%=      5-min Rain = 0
KDC1 110641Z 16004KT 22/18 A3017 RMK A01 T02200177  RH  077%=      5-min Rain = 0
KDC1 110642Z 16004KT 22/18 A3017 RMK A01 T02200177  RH  077%=      5-min Rain = 0
KDC1 110643Z 16004KT 22/18 A3017 RMK A01 T02200177  RH  077%=      5-min Rain = 0
KDC1 110644Z 17003KT 22/18 A3017 RMK A01 T02190178  RH  077%=      5-min Rain = 0
KDC1 110645Z 16004KT 22/18 A3017 RMK A01 T02190178  RH  077%=      5-min Rain = 0
KDC1 110646Z 17003KT 22/18 A3017 RMK A01 T02190177  RH  077%=      5-min Rain = 0
KDC1 110647Z 17004KT 22/18 A3017 RMK A01 T02190178  RH  078%=      5-min Rain = 0
KDC1 110648Z 17004KT 22/18 A3017 RMK A01 T02190179  RH  078%=      5-min Rain = 0
KDC1 110649Z 17003KT 22/18 A3017 RMK A01 T02190178  RH  077%=      5-min Rain = 0
KDC1 110650Z 17003KT 22/18 A3017 RMK A01 T02190177  RH  077%=      5-min Rain = 0
KDC1 110651Z 17002KT 22/18 A3017 RMK A01 T02190178  RH  078%=      5-min Rain = 0
KDC1 110652Z 17002KT 22/18 A3017 RMK A01 T02190178  RH  077%=      5-min Rain = 0
KDC1 110653Z 16003KT 22/18 A3017 RMK A01 T02190176  RH  076%=      5-min Rain = 0
KDC1 110654Z 16003KT 22/18 A3017 RMK A01 T02190177  RH  077%=      5-min Rain = 0
KDC1 110655Z 17002KT 22/18 A3017 RMK A01 T02190177  RH  077%=      5-min Rain = 0
KDC1 110656Z 18002KT 22/18 A3017 RMK A01 T02190177  RH  077%=      5-min Rain = 0
KDC1 110657Z 17002KT 22/18 A3017 RMK A01 T02190176  RH  077%=      5-min Rain = 0
KDC1 110658Z 18002KT 22/18 A3017 RMK A01 T02190176  RH  077%=      5-min Rain = 0
KDC1 110659Z 17002KT 22/18 A3017 RMK A01 T02190177  RH  077%=      5-min Rain = 0
KDC1 110700Z 18002KT 22/18 A3017 RMK A01 T02190176  RH  077%=      5-min Rain = 0
KDC1 110701Z 18002KT 22/17 A3017 RMK A01 T02190174  RH  076%=      5-min Rain = 0
KDC1 110702Z 19002KT 22/18 A3017 RMK A01 T02190176  RH  076%=      5-min Rain = 0
KDC1 110703Z 19001KT 22/18 A3017 RMK A01 T02190176  RH  076%=      5-min Rain = 0
KDC1 110704Z 21001KT 22/18 A3017 RMK A01 T02190175  RH  076%=      5-min Rain = 0
KDC1 110705Z 23001KT 22/18 A3017 RMK A01 T02190175  RH  076%=      5-min Rain = 0
KDC1 110706Z 29001KT 22/18 A3017 RMK A01 T02180184  RH  081%=      5-min Rain = 0
KDC1 110707Z 28001KT 22/19 A3017 RMK A01 T02150187  RH  084%=      5-min Rain = 0
KDC1 110708Z 28001KT 21/19 A3017 RMK A01 T02120185  RH  085%=      5-min Rain = 0
KDC1 110709Z 26001KT 21/19 A3017 RMK A01 T02110186  RH  086%=      5-min Rain = 0
KDC1 110710Z 26001KT 21/19 A3017 RMK A01 T02100187  RH  087%=      5-min Rain = 0
KDC1 110711Z 25001KT 21/19 A3017 RMK A01 T02090187  RH  088%=      5-min Rain = 0
KDC1 110712Z 24001KT 21/19 A3017 RMK A01 T02080187  RH  088%=      5-min Rain = 0
KDC1 110713Z 22001KT 21/19 A3017 RMK A01 T02070186  RH  087%=      5-min Rain = 0
KDC1 110714Z 21001KT 21/18 A3017 RMK A01 T02070183  RH  087%=      5-min Rain = 0
KDC1 110715Z 23001KT 21/18 A3017 RMK A01 T02070182  RH  086%=      5-min Rain = 0
KDC1 110716Z 24001KT 21/18 A3017 RMK A01 T02070183  RH  086%=      5-min Rain = 0
KDC1 110717Z 24001KT 21/18 A3017 RMK A01 T02070184  RH  087%=      5-min Rain = 0
KDC1 110718Z 26001KT 21/19 A3017 RMK A01 T02070185  RH  087%=      5-min Rain = 0
KDC1 110719Z 26002KT 21/19 A3017 RMK A01 T02060186  RH  088%=      5-min Rain = 0
KDC1 110720Z 27001KT 21/19 A3017 RMK A01 T02050185  RH  088%=      5-min Rain = 0
KDC1 110721Z 27001KT 21/19 A3017 RMK A01 T02050186  RH  088%=      5-min Rain = 0
KDC1 110722Z 26001KT 21/19 A3017 RMK A01 T02050185  RH  088%=      5-min Rain = 0
KDC1 110723Z 00000KT 21/18 A3017 RMK A01 T02050184  RH  088%=      5-min Rain = 0
KDC1 110724Z 24000KT 21/18 A3017 RMK A01 T02050184  RH  088%=      5-min Rain = 0
KDC1 110725Z 00000KT 21/19 A3017 RMK A01 T02050185  RH  089%=      5-min Rain = 0
KDC1 110726Z 25000KT 21/19 A3017 RMK A01 T02050186  RH  089%=      5-min Rain = 0
KDC1 110727Z 00000KT 21/19 A3017 RMK A01 T02050186  RH  089%=      5-min Rain = 0
KDC1 110728Z 00000KT 21/19 A3017 RMK A01 T02050186  RH  089%=      5-min Rain = 0
KDC1 110729Z 00000KT 21/19 A3017 RMK A01 T02050186  RH  089%=      5-min Rain = 0
KDC1 110730Z 00000KT 21/19 A3017 RMK A01 T02050188  RH  090%=      5-min Rain = 0
KDC1 110731Z 17000KT 21/19 A3017 RMK A01 T02050188  RH  090%=      5-min Rain = 0
KDC1 110732Z 00000KT 21/19 A3017 RMK A01 T02050187  RH  090%=      5-min Rain = 0
KDC1 110733Z 00000KT 21/19 A3017 RMK A01 T02050187  RH  090%=      5-min Rain = 0
KDC1 110734Z 00000KT 21/19 A3017 RMK A01 T02050188  RH  090%=      5-min Rain = 0
KDC1 110735Z 00000KT 20/19 A3017 RMK A01 T02040187  RH  090%=      5-min Rain = 0
KDC1 110736Z 00000KT 20/19 A3017 RMK A01 T02040188  RH  090%=      5-min Rain = 0
KDC1 110737Z 00000KT 20/19 A3017 RMK A01 T02040188  RH  091%=      5-min Rain = 0
KDC1 110738Z 00000KT 20/19 A3017 RMK A01 T02040188  RH  090%=      5-min Rain = 0
KDC1 110739Z 00000KT 20/19 A3017 RMK A01 T02040187  RH  090%=      5-min Rain = 0
KDC1 110740Z 00000KT 20/19 A3016 RMK A01 T02030186  RH  090%=      5-min Rain = 0
KDC1 110741Z 00000KT 20/19 A3016 RMK A01 T02030188  RH  091%=      5-min Rain = 0
KDC1 110742Z 00000KT 20/19 A3016 RMK A01 T02030188  RH  091%=      5-min Rain = 0
KDC1 110743Z 00000KT 20/19 A3016 RMK A01 T02030188  RH  091%=      5-min Rain = 0
KDC1 110744Z 00000KT 20/19 A3016 RMK A01 T02020188  RH  091%=      5-min Rain = 0
KDC1 110745Z 00000KT 20/19 A3016 RMK A01 T02030189  RH  092%=      5-min Rain = 0
KDC1 110746Z 11000KT 20/19 A3016 RMK A01 T02020188  RH  092%=      5-min Rain = 0
KDC1 110747Z 00000KT 20/19 A3016 RMK A01 T02020188  RH  092%=      5-min Rain = 0
KDC1 110748Z 00000KT 20/19 A3016 RMK A01 T02020188  RH  091%=      5-min Rain = 0
KDC1 110749Z 00000KT 20/19 A3016 RMK A01 T02020187  RH  091%=      5-min Rain = 0
KDC1 110750Z 15000KT 20/19 A3016 RMK A01 T02020188  RH  092%=      5-min Rain = 0
KDC1 110751Z 16001KT 20/19 A3016 RMK A01 T02020187  RH  091%=      5-min Rain = 0
KDC1 110752Z 16000KT 20/19 A3016 RMK A01 T02020187  RH  091%=      5-min Rain = 0
KDC1 110753Z 17000KT 20/18 A3016 RMK A01 T02020184  RH  089%=      5-min Rain = 0
KDC1 110754Z 16001KT 20/18 A3016 RMK A01 T02020183  RH  089%=      5-min Rain = 0
KDC1 110755Z 16000KT 20/18 A3016 RMK A01 T02020181  RH  088%=      5-min Rain = 0
KDC1 110756Z 17001KT 20/18 A3016 RMK A01 T02030182  RH  088%=      5-min Rain = 0
KDC1 110757Z 16001KT 20/18 A3016 RMK A01 T02030182  RH  088%=      5-min Rain = 0
KDC1 110758Z 16001KT 20/18 A3016 RMK A01 T02030183  RH  088%=      5-min Rain = 0
KDC1 110759Z 16001KT 20/18 A3016 RMK A01 T02030180  RH  087%=      5-min Rain = 0
KDC1 110800Z 17002KT 20/18 A3016 RMK A01 T02030177  RH  085%=      5-min Rain = 0
KDC1 110801Z 18001KT 20/18 A3016 RMK A01 T02040175  RH  083%=      5-min Rain = 0
KDC1 110802Z 19001KT 21/18 A3016 RMK A01 T02050177  RH  084%=      5-min Rain = 0
KDC1 110803Z 18001KT 21/18 A3016 RMK A01 T02060181  RH  086%=      5-min Rain = 0
KDC1 110804Z 19001KT 21/18 A3016 RMK A01 T02060182  RH  086%=      5-min Rain = 0
KDC1 110805Z 19001KT 21/18 A3016 RMK A01 T02060183  RH  087%=      5-min Rain = 0
KDC1 110806Z 18001KT 21/18 A3016 RMK A01 T02070182  RH  086%=      5-min Rain = 0
KDC1 110807Z 18001KT 21/18 A3016 RMK A01 T02070181  RH  085%=      5-min Rain = 0
KDC1 110808Z 17001KT 21/18 A3016 RMK A01 T02070184  RH  086%=      5-min Rain = 0
KDC1 110809Z 16001KT 21/18 A3016 RMK A01 T02070179  RH  084%=      5-min Rain = 0
KDC1 110810Z 15001KT 21/18 A3016 RMK A01 T02070181  RH  085%=      5-min Rain = 0
KDC1 110811Z 15001KT 21/18 A3016 RMK A01 T02070179  RH  084%=      5-min Rain = 0
KDC1 110812Z 15001KT 21/18 A3016 RMK A01 T02070177  RH  083%=      5-min Rain = 0
KDC1 110813Z 15001KT 21/18 A3016 RMK A01 T02070176  RH  083%=      5-min Rain = 0
KDC1 110814Z 14001KT 21/18 A3016 RMK A01 T02080176  RH  082%=      5-min Rain = 0
KDC1 110815Z 13001KT 21/18 A3016 RMK A01 T02090177  RH  082%=      5-min Rain = 0
KDC1 110816Z 13001KT 21/18 A3016 RMK A01 T02100176  RH  081%=      5-min Rain = 0
KDC1 110817Z 14001KT 21/18 A3016 RMK A01 T02100175  RH  080%=      5-min Rain = 0
KDC1 110818Z 14001KT 21/18 A3016 RMK A01 T02110175  RH  080%=      5-min Rain = 0
KDC1 110819Z 14001KT 21/17 A3016 RMK A01 T02110174  RH  079%=      5-min Rain = 0
KDC1 110820Z 15001KT 21/18 A3016 RMK A01 T02110175  RH  080%=      5-min Rain = 0
KDC1 110821Z 16001KT 21/18 A3016 RMK A01 T02120176  RH  080%=      5-min Rain = 0
KDC1 110822Z 17001KT 21/18 A3016 RMK A01 T02110176  RH  080%=      5-min Rain = 0
KDC1 110823Z 18001KT 21/18 A3016 RMK A01 T02120177  RH  081%=      5-min Rain = 0
KDC1 110824Z 18002KT 21/18 A3016 RMK A01 T02110177  RH  080%=      5-min Rain = 0
KDC1 110825Z 18002KT 21/18 A3016 RMK A01 T02110175  RH  080%=      5-min Rain = 0
KDC1 110826Z 18002KT 21/18 A3016 RMK A01 T02100176  RH  081%=      5-min Rain = 0
KDC1 110827Z 19003KT 21/18 A3016 RMK A01 T02100175  RH  081%=      5-min Rain = 0
KDC1 110828Z 19003KT 21/18 A3016 RMK A01 T02090175  RH  081%=      5-min Rain = 0
KDC1 110829Z 19003KT 21/18 A3016 RMK A01 T02090176  RH  081%=      5-min Rain = 0
KDC1 110830Z 19003KT 21/18 A3016 RMK A01 T02090175  RH  081%=      5-min Rain = 0
KDC1 110831Z 19002KT 21/17 A3016 RMK A01 T02080174  RH  081%=      5-min Rain = 0
KDC1 110832Z 19002KT 21/17 A3016 RMK A01 T02080174  RH  080%=      5-min Rain = 0
KDC1 110833Z 19002KT 21/17 A3016 RMK A01 T02080173  RH  080%=      5-min Rain = 0
KDC1 110834Z 19002KT 21/18 A3016 RMK A01 T02080175  RH  081%=      5-min Rain = 0
KDC1 110835Z 19002KT 21/18 A3016 RMK A01 T02080176  RH  082%=      5-min Rain = 0
KDC1 110836Z 20002KT 21/18 A3016 RMK A01 T02080175  RH  081%=      5-min Rain = 0
KDC1 110837Z 21002KT 21/18 A3016 RMK A01 T02080175  RH  081%=      5-min Rain = 0
KDC1 110838Z 22002KT 21/18 A3016 RMK A01 T02090175  RH  081%=      5-min Rain = 0
KDC1 110839Z 24002KT 21/18 A3016 RMK A01 T02090177  RH  082%=      5-min Rain = 0
KDC1 110840Z 24002KT 21/18 A3016 RMK A01 T02090184  RH  086%=      5-min Rain = 0
KDC1 110841Z 23002KT 21/19 A3016 RMK A01 T02070186  RH  088%=      5-min Rain = 0
KDC1 110842Z 23002KT 21/19 A3016 RMK A01 T02050185  RH  088%=      5-min Rain = 0
KDC1 110843Z 22002KT 20/18 A3016 RMK A01 T02040184  RH  088%=      5-min Rain = 0
KDC1 110844Z 22002KT 20/18 A3016 RMK A01 T02030181  RH  087%=      5-min Rain = 0
KDC1 110845Z 22002KT 20/18 A3016 RMK A01 T02030181  RH  087%=      5-min Rain = 0
KDC1 110846Z 22002KT 20/18 A3016 RMK A01 T02030178  RH  085%=      5-min Rain = 0
KDC1 110847Z 23002KT 20/18 A3016 RMK A01 T02030177  RH  085%=      5-min Rain = 0
KDC1 110848Z 22002KT 20/18 A3016 RMK A01 T02030177  RH  085%=      5-min Rain = 0
KDC1 110849Z 21001KT 20/18 A3016 RMK A01 T02040176  RH  084%=      5-min Rain = 0
KDC1 110850Z 21002KT 20/18 A3016 RMK A01 T02040175  RH  084%=      5-min Rain = 0
KDC1 110851Z 21002KT 20/18 A3016 RMK A01 T02040175  RH  084%=      5-min Rain = 0
KDC1 110852Z 20002KT 20/18 A3016 RMK A01 T02040175  RH  084%=      5-min Rain = 0
KDC1 110853Z 22002KT 20/18 A3016 RMK A01 T02040175  RH  084%=      5-min Rain = 0
KDC1 110854Z 21002KT 20/17 A3016 RMK A01 T02040174  RH  083%=      5-min Rain = 0
KDC1 110855Z 21002KT 20/17 A3016 RMK A01 T02040174  RH  083%=      5-min Rain = 0
KDC1 110856Z 21002KT 20/17 A3016 RMK A01 T02040173  RH  082%=      5-min Rain = 0
KDC1 110857Z 21002KT 20/17 A3015 RMK A01 T02040173  RH  083%=      5-min Rain = 0
KDC1 110858Z 21002KT 20/17 A3015 RMK A01 T02040173  RH  083%=      5-min Rain = 0
KDC1 110859Z 21002KT 20/17 A3015 RMK A01 T02030173  RH  082%=      5-min Rain = 0
KDC1 110900Z 22001KT 20/17 A3015 RMK A01 T02030173  RH  083%=      5-min Rain = 0
KDC1 110901Z 23001KT 20/17 A3015 RMK A01 T02030174  RH  083%=      5-min Rain = 0
KDC1 110902Z 23001KT 20/18 A3015 RMK A01 T02030175  RH  084%=      5-min Rain = 0
KDC1 110903Z 22000KT 20/18 A3015 RMK A01 T02030175  RH  084%=      5-min Rain = 0
KDC1 110904Z 22000KT 20/18 A3015 RMK A01 T02020175  RH  084%=      5-min Rain = 0
KDC1 110905Z 00000KT 20/17 A3015 RMK A01 T02020174  RH  084%=      5-min Rain = 0
KDC1 110906Z 00000KT 20/18 A3015 RMK A01 T02020178  RH  086%=      5-min Rain = 0
KDC1 110907Z 00000KT 20/18 A3015 RMK A01 T02020181  RH  088%=      5-min Rain = 0
KDC1 110908Z 19000KT 20/18 A3015 RMK A01 T02010182  RH  089%=      5-min Rain = 0
KDC1 110909Z 21000KT 20/18 A3015 RMK A01 T02000182  RH  089%=      5-min Rain = 0
KDC1 110910Z 00000KT 20/18 A3015 RMK A01 T01980180  RH  090%=      5-min Rain = 0
KDC1 110911Z 00000KT 20/18 A3015 RMK A01 T01970181  RH  090%=      5-min Rain = 0
KDC1 110912Z 00000KT 20/18 A3015 RMK A01 T01960182  RH  091%=      5-min Rain = 0
KDC1 110913Z 00000KT 20/18 A3015 RMK A01 T01960182  RH  092%=      5-min Rain = 0
KDC1 110914Z 22000KT 20/18 A3015 RMK A01 T01950182  RH  092%=      5-min Rain = 0
KDC1 110915Z 00000KT 20/18 A3015 RMK A01 T01950182  RH  092%=      5-min Rain = 0
KDC1 110916Z 00000KT 19/18 A3015 RMK A01 T01940181  RH  092%=      5-min Rain = 0
KDC1 110917Z 00000KT 19/18 A3015 RMK A01 T01940181  RH  092%=      5-min Rain = 0
KDC1 110918Z 00000KT 19/18 A3015 RMK A01 T01940182  RH  092%=      5-min Rain = 0
KDC1 110919Z 00000KT 19/18 A3015 RMK A01 T01940182  RH  093%=      5-min Rain = 0
KDC1 110920Z 00000KT 19/18 A3015 RMK A01 T01940182  RH  093%=      5-min Rain = 0
KDC1 110921Z 29000KT 19/18 A3015 RMK A01 T01930180  RH  092%=      5-min Rain = 0
KDC1 110922Z 30001KT 19/18 A3015 RMK A01 T01930180  RH  092%=      5-min Rain = 0
KDC1 110923Z 30001KT 19/18 A3015 RMK A01 T01930179  RH  092%=      5-min Rain = 0
KDC1 110924Z 29001KT 19/18 A3015 RMK A01 T01930179  RH  092%=      5-min Rain = 0
KDC1 110925Z 28001KT 19/18 A3015 RMK A01 T01920178  RH  091%=      5-min Rain = 0
KDC1 110926Z 27000KT 19/18 A3015 RMK A01 T01920177  RH  091%=      5-min Rain = 0
KDC1 110927Z 28000KT 19/18 A3015 RMK A01 T01910177  RH  091%=      5-min Rain = 0
KDC1 110928Z 28001KT 19/18 A3015 RMK A01 T01910177  RH  091%=      5-min Rain = 0
KDC1 110929Z 27001KT 19/18 A3016 RMK A01 T01920178  RH  092%=      5-min Rain = 0
KDC1 110930Z 27002KT 19/18 A3016 RMK A01 T01910178  RH  092%=      5-min Rain = 0
KDC1 110931Z 26001KT 19/18 A3016 RMK A01 T01910178  RH  092%=      5-min Rain = 0
KDC1 110932Z 26002KT 19/18 A3016 RMK A01 T01910178  RH  092%=      5-min Rain = 0
KDC1 110933Z 25002KT 19/18 A3016 RMK A01 T01910177  RH  092%=      5-min Rain = 0
KDC1 110934Z 24002KT 19/18 A3016 RMK A01 T01910177  RH  092%=      5-min Rain = 0
KDC1 110935Z 24002KT 19/18 A3016 RMK A01 T01910177  RH  091%=      5-min Rain = 0
KDC1 110936Z 23002KT 19/18 A3016 RMK A01 T01910177  RH  091%=      5-min Rain = 0
KDC1 110937Z 23002KT 19/18 A3016 RMK A01 T01920177  RH  091%=      5-min Rain = 0
KDC1 110938Z 23002KT 19/18 A3016 RMK A01 T01920177  RH  091%=      5-min Rain = 0
KDC1 110939Z 23002KT 19/18 A3016 RMK A01 T01930177  RH  091%=      5-min Rain = 0
KDC1 110940Z 23002KT 19/18 A3016 RMK A01 T01930177  RH  090%=      5-min Rain = 0
KDC1 110941Z 23002KT 19/18 A3016 RMK A01 T01930178  RH  091%=      5-min Rain = 0
KDC1 110942Z 22003KT 19/18 A3016 RMK A01 T01940177  RH  090%=      5-min Rain = 0
KDC1 110943Z 22002KT 19/18 A3016 RMK A01 T01940175  RH  089%=      5-min Rain = 0
KDC1 110944Z 21003KT 19/17 A3016 RMK A01 T01940174  RH  088%=      5-min Rain = 0
KDC1 110945Z 20002KT 19/17 A3016 RMK A01 T01940173  RH  087%=      5-min Rain = 0
KDC1 110946Z 20001KT 20/17 A3016 RMK A01 T01950173  RH  087%=      5-min Rain = 0
KDC1 110947Z 19001KT 20/17 A3016 RMK A01 T01950172  RH  086%=      5-min Rain = 0
KDC1 110948Z 18001KT 20/17 A3016 RMK A01 T01950172  RH  086%=      5-min Rain = 0
KDC1 110949Z 11001KT 20/18 A3016 RMK A01 T01960176  RH  088%=      5-min Rain = 0
KDC1 110950Z 12001KT 20/18 A3016 RMK A01 T01960177  RH  089%=      5-min Rain = 0
KDC1 110951Z 10000KT 20/18 A3016 RMK A01 T01960176  RH  088%=      5-min Rain = 0
KDC1 110952Z 09001KT 20/18 A3016 RMK A01 T01960178  RH  089%=      5-min Rain = 0
KDC1 110953Z 00000KT 20/18 A3016 RMK A01 T01960179  RH  090%=      5-min Rain = 0
KDC1 110954Z 00000KT 20/18 A3016 RMK A01 T01960179  RH  090%=      5-min Rain = 0
KDC1 110955Z 00000KT 20/18 A3016 RMK A01 T01950180  RH  091%=      5-min Rain = 0
KDC1 110956Z 00000KT 20/18 A3016 RMK A01 T01950179  RH  091%=      5-min Rain = 0
KDC1 110957Z 00000KT 19/18 A3015 RMK A01 T01940179  RH  091%=      5-min Rain = 0
KDC1 110958Z 08001KT 19/18 A3015 RMK A01 T01920179  RH  092%=      5-min Rain = 0
KDC1 110959Z 08001KT 19/18 A3015 RMK A01 T01920179  RH  092%=      5-min Rain = 0
KDC1 111000Z 08000KT 19/18 A3015 RMK A01 T01920180  RH  093%=      5-min Rain = 0
KDC1 111001Z 00000KT 19/18 A3015 RMK A01 T01910180  RH  093%=      5-min Rain = 0
KDC1 111002Z 00000KT 19/18 A3015 RMK A01 T01910180  RH  093%=      5-min Rain = 0
KDC1 111003Z 00000KT 19/18 A3016 RMK A01 T01900180  RH  093%=      5-min Rain = 0
KDC1 111004Z 00000KT 19/18 A3016 RMK A01 T01900180  RH  094%=      5-min Rain = 0
KDC1 111005Z 00000KT 19/18 A3016 RMK A01 T01900180  RH  094%=      5-min Rain = 0
KDC1 111006Z 30000KT 19/18 A3016 RMK A01 T01900180  RH  094%=      5-min Rain = 0
KDC1 111007Z 29001KT 19/18 A3016 RMK A01 T01900180  RH  094%=      5-min Rain = 0
KDC1 111008Z 29001KT 19/18 A3016 RMK A01 T01900180  RH  094%=      5-min Rain = 0
KDC1 111009Z 29001KT 19/18 A3016 RMK A01 T01900180  RH  094%=      5-min Rain = 0
KDC1 111010Z 29001KT 19/18 A3015 RMK A01 T01900180  RH  094%=      5-min Rain = 0
KDC1 111011Z 29001KT 19/18 A3015 RMK A01 T01900179  RH  093%=      5-min Rain = 0
KDC1 111012Z 29000KT 19/18 A3015 RMK A01 T01900178  RH  093%=      5-min Rain = 0
KDC1 111013Z 00000KT 19/18 A3015 RMK A01 T01900178  RH  093%=      5-min Rain = 0
KDC1 111014Z 00000KT 19/18 A3015 RMK A01 T01890177  RH  093%=      5-min Rain = 0
KDC1 111015Z 00000KT 19/18 A3015 RMK A01 T01890178  RH  093%=      5-min Rain = 0
KDC1 111016Z 00000KT 19/18 A3015 RMK A01 T01890177  RH  093%=      5-min Rain = 0
KDC1 111017Z 00000KT 19/18 A3015 RMK A01 T01890177  RH  093%=      5-min Rain = 0
KDC1 111018Z 23000KT 19/18 A3015 RMK A01 T01880177  RH  093%=      5-min Rain = 0
KDC1 111019Z 22001KT 19/18 A3015 RMK A01 T01880175  RH  092%=      5-min Rain = 0
KDC1 111020Z 22002KT 19/17 A3015 RMK A01 T01880174  RH  091%=      5-min Rain = 0
KDC1 111021Z 22003KT 19/17 A3015 RMK A01 T01890173  RH  091%=      5-min Rain = 0
KDC1 111022Z 22002KT 19/17 A3015 RMK A01 T01890172  RH  090%=      5-min Rain = 0
KDC1 111023Z 22003KT 19/17 A3015 RMK A01 T01900173  RH  090%=      5-min Rain = 0
KDC1 111024Z 21003KT 19/17 A3015 RMK A01 T01910172  RH  089%=      5-min Rain = 0
KDC1 111025Z 21003KT 19/17 A3015 RMK A01 T01930172  RH  088%=      5-min Rain = 0
KDC1 111026Z 22003KT 19/17 A3015 RMK A01 T01930172  RH  088%=      5-min Rain = 0
KDC1 111027Z 22003KT 19/17 A3015 RMK A01 T01930171  RH  087%=      5-min Rain = 0
KDC1 111028Z 22003KT 19/17 A3015 RMK A01 T01940170  RH  086%=      5-min Rain = 0
KDC1 111029Z 22002KT 19/17 A3015 RMK A01 T01940168  RH  085%=      5-min Rain = 0
KDC1 111030Z 23003KT 20/17 A3015 RMK A01 T01960168  RH  084%=      5-min Rain = 0
KDC1 111031Z 23003KT 20/17 A3015 RMK A01 T01970169  RH  084%=      5-min Rain = 0
KDC1 111032Z 23002KT 20/17 A3015 RMK A01 T01980172  RH  085%=      5-min Rain = 0
KDC1 111033Z 23002KT 20/17 A3015 RMK A01 T01980172  RH  085%=      5-min Rain = 0
KDC1 111034Z 24003KT 20/17 A3015 RMK A01 T01970172  RH  085%=      5-min Rain = 0
KDC1 111035Z 23003KT 20/17 A3015 RMK A01 T01970171  RH  085%=      5-min Rain = 0
KDC1 111036Z 24003KT 20/17 A3015 RMK A01 T01970172  RH  085%=      5-min Rain = 0
KDC1 111037Z 23002KT 20/17 A3015 RMK A01 T01960171  RH  086%=      5-min Rain = 0
KDC1 111038Z 23002KT 20/17 A3015 RMK A01 T01950171  RH  086%=      5-min Rain = 0
KDC1 111039Z 23002KT 20/17 A3015 RMK A01 T01950171  RH  086%=      5-min Rain = 0
KDC1 111040Z 23002KT 19/17 A3015 RMK A01 T01940172  RH  087%=      5-min Rain = 0
KDC1 111041Z 23001KT 19/18 A3015 RMK A01 T01940176  RH  089%=      5-min Rain = 0
KDC1 111042Z 23000KT 19/18 A3015 RMK A01 T01930176  RH  090%=      5-min Rain = 0
KDC1 111043Z 27000KT 19/18 A3015 RMK A01 T01910175  RH  090%=      5-min Rain = 0
KDC1 111044Z 26001KT 19/17 A3015 RMK A01 T01890173  RH  090%=      5-min Rain = 0
KDC1 111045Z 25001KT 19/17 A3015 RMK A01 T01880172  RH  090%=      5-min Rain = 0
KDC1 111046Z 25001KT 19/17 A3015 RMK A01 T01880171  RH  090%=      5-min Rain = 0
KDC1 111047Z 26001KT 19/17 A3015 RMK A01 T01870172  RH  091%=      5-min Rain = 0
KDC1 111048Z 26002KT 19/17 A3015 RMK A01 T01870173  RH  092%=      5-min Rain = 0
KDC1 111049Z 26002KT 19/17 A3015 RMK A01 T01860173  RH  092%=      5-min Rain = 0
KDC1 111050Z 27002KT 19/17 A3015 RMK A01 T01850172  RH  092%=      5-min Rain = 0
KDC1 111051Z 28002KT 19/17 A3015 RMK A01 T01850171  RH  092%=      5-min Rain = 0
KDC1 111052Z 28001KT 18/17 A3015 RMK A01 T01840170  RH  091%=      5-min Rain = 0
KDC1 111053Z 28002KT 19/17 A3015 RMK A01 T01850168  RH  090%=      5-min Rain = 0
KDC1 111054Z 27002KT 19/17 A3015 RMK A01 T01850167  RH  089%=      5-min Rain = 0
KDC1 111055Z 28002KT 19/17 A3015 RMK A01 T01850167  RH  089%=      5-min Rain = 0
KDC1 111056Z 28003KT 19/17 A3015 RMK A01 T01850169  RH  090%=      5-min Rain = 0
KDC1 111057Z 28003KT 19/17 A3015 RMK A01 T01850169  RH  090%=      5-min Rain = 0
KDC1 111058Z 27003KT 19/17 A3015 RMK A01 T01860169  RH  090%=      5-min Rain = 0
KDC1 111059Z 26003KT 19/17 A3015 RMK A01 T01850169  RH  090%=      5-min Rain = 0
KDC1 111100Z 26003KT 19/17 A3015 RMK A01 T01850169  RH  091%=      5-min Rain = 0
KDC1 111101Z 26003KT 18/17 A3015 RMK A01 T01840168  RH  090%=      5-min Rain = 0
KDC1 111102Z 26003KT 18/17 A3015 RMK A01 T01840169  RH  091%=      5-min Rain = 0
KDC1 111103Z 26003KT 18/17 A3015 RMK A01 T01840169  RH  091%=      5-min Rain = 0
KDC1 111104Z 26003KT 18/17 A3015 RMK A01 T01840170  RH  091%=      5-min Rain = 0
KDC1 111105Z 26002KT 19/17 A3015 RMK A01 T01850170  RH  091%=      5-min Rain = 0
KDC1 111106Z 26003KT 19/17 A3015 RMK A01 T01850171  RH  091%=      5-min Rain = 0
KDC1 111107Z 26003KT 19/17 A3015 RMK A01 T01860172  RH  092%=      5-min Rain = 0
KDC1 111108Z 25003KT 19/17 A3015 RMK A01 T01860172  RH  091%=      5-min Rain = 0
KDC1 111109Z 25003KT 19/17 A3016 RMK A01 T01870170  RH  090%=      5-min Rain = 0
KDC1 111110Z 25003KT 19/17 A3016 RMK A01 T01880169  RH  089%=      5-min Rain = 0
KDC1 111111Z 25003KT 19/17 A3016 RMK A01 T01890169  RH  088%=      5-min Rain = 0
KDC1 111112Z 25003KT 19/17 A3016 RMK A01 T01900168  RH  087%=      5-min Rain = 0
KDC1 111113Z 25003KT 19/17 A3016 RMK A01 T01910168  RH  086%=      5-min Rain = 0
KDC1 111114Z 25003KT 19/17 A3016 RMK A01 T01920168  RH  086%=      5-min Rain = 0
KDC1 111115Z 25003KT 19/17 A3016 RMK A01 T01920168  RH  085%=      5-min Rain = 0
KDC1 111116Z 25003KT 19/17 A3016 RMK A01 T01930167  RH  085%=      5-min Rain = 0
KDC1 111117Z 25003KT 19/17 A3016 RMK A01 T01930167  RH  085%=      5-min Rain = 0
KDC1 111118Z 25003KT 19/17 A3015 RMK A01 T01930167  RH  085%=      5-min Rain = 0
KDC1 111119Z 25003KT 19/17 A3015 RMK A01 T01930167  RH  085%=      5-min Rain = 0
KDC1 111120Z 25003KT 19/17 A3015 RMK A01 T01930167  RH  085%=      5-min Rain = 0
KDC1 111121Z 25003KT 19/17 A3015 RMK A01 T01930167  RH  085%=      5-min Rain = 0
KDC1 111122Z 25003KT 19/17 A3015 RMK A01 T01930167  RH  085%=      5-min Rain = 0
KDC1 111123Z 25003KT 19/17 A3015 RMK A01 T01930167  RH  085%=      5-min Rain = 0
KDC1 111124Z 25003KT 19/17 A3015 RMK A01 T01930167  RH  085%=      5-min Rain = 0
KDC1 111125Z 25003KT 19/17 A3015 RMK A01 T01930167  RH  085%=      5-min Rain = 0
KDC1 111126Z 24003KT 19/17 A3015 RMK A01 T01920167  RH  085%=      5-min Rain = 0
KDC1 111127Z 24003KT 19/17 A3015 RMK A01 T01920167  RH  086%=      5-min Rain = 0
KDC1 111128Z 24003KT 19/17 A3015 RMK A01 T01910167  RH  086%=      5-min Rain = 0
KDC1 111129Z 23003KT 19/17 A3015 RMK A01 T01900167  RH  086%=      5-min Rain = 0
KDC1 111130Z 23003KT 19/17 A3015 RMK A01 T01910166  RH  086%=      5-min Rain = 0
KDC1 111131Z 23003KT 19/17 A3015 RMK A01 T01910166  RH  085%=      5-min Rain = 0
KDC1 111132Z 23004KT 19/17 A3015 RMK A01 T01920167  RH  085%=      5-min Rain = 0
KDC1 111133Z 23004KT 19/17 A3015 RMK A01 T01930167  RH  085%=      5-min Rain = 0
KDC1 111134Z 22003KT 19/17 A3016 RMK A01 T01940166  RH  084%=      5-min Rain = 0
KDC1 111135Z 22004KT 19/17 A3016 RMK A01 T01940167  RH  084%=      5-min Rain = 0
KDC1 111136Z 23004KT 19/17 A3016 RMK A01 T01940166  RH  084%=      5-min Rain = 0
KDC1 111137Z 22004KT 20/17 A3016 RMK A01 T01950166  RH  084%=      5-min Rain = 0
KDC1 111138Z 22004KT 20/17 A3016 RMK A01 T01950166  RH  083%=      5-min Rain = 0
KDC1 111139Z 23004KT 20/17 A3016 RMK A01 T01950166  RH  083%=      5-min Rain = 0
KDC1 111140Z 23004KT 20/17 A3016 RMK A01 T01950166  RH  083%=      5-min Rain = 0
KDC1 111141Z 23004KT 20/17 A3016 RMK A01 T01950165  RH  083%=      5-min Rain = 0
KDC1 111142Z 22004KT 20/17 A3016 RMK A01 T01950165  RH  083%=      5-min Rain = 0
KDC1 111143Z 23005KT 20/17 A3016 RMK A01 T01950165  RH  083%=      5-min Rain = 0
KDC1 111144Z 23004KT 20/17 A3016 RMK A01 T01960165  RH  083%=      5-min Rain = 0
KDC1 111145Z 23004KT 20/17 A3016 RMK A01 T01950165  RH  083%=      5-min Rain = 0
KDC1 111146Z 23003KT 20/17 A3016 RMK A01 T01960166  RH  083%=      5-min Rain = 0
KDC1 111147Z 23003KT 20/17 A3016 RMK A01 T01950166  RH  083%=      5-min Rain = 0
KDC1 111148Z 23002KT 19/17 A3016 RMK A01 T01940166  RH  084%=      5-min Rain = 0
KDC1 111149Z 23002KT 19/17 A3016 RMK A01 T01940166  RH  084%=      5-min Rain = 0
KDC1 111150Z 23002KT 19/17 A3016 RMK A01 T01940166  RH  084%=      5-min Rain = 0
KDC1 111151Z 22002KT 19/17 A3016 RMK A01 T01930166  RH  084%=      5-min Rain = 0
KDC1 111152Z 22002KT 19/17 A3016 RMK A01 T01940166  RH  084%=      5-min Rain = 0
KDC1 111153Z 22002KT 19/17 A3016 RMK A01 T01940166  RH  084%=      5-min Rain = 0
KDC1 111154Z 21001KT 19/17 A3016 RMK A01 T01940166  RH  084%=      5-min Rain = 0
KDC1 111155Z 21001KT 19/17 A3016 RMK A01 T01940166  RH  084%=      5-min Rain = 0
KDC1 111156Z 19000KT 19/17 A3016 RMK A01 T01940166  RH  084%=      5-min Rain = 0
KDC1 111157Z 00000KT 19/17 A3016 RMK A01 T01940167  RH  084%=      5-min Rain = 0
KDC1 111158Z 00000KT 19/17 A3016 RMK A01 T01930167  RH  085%=      5-min Rain = 0
KDC1 111159Z 00000KT 19/17 A3016 RMK A01 T01930167  RH  085%=      5-min Rain = 0
KDC1 111200Z 00000KT 19/17 A3016 RMK A01 T01920168  RH  086%=      5-min Rain = 0
KDC1 111201Z 00000KT 19/17 A3016 RMK A01 T01920167  RH  085%=      5-min Rain = 0
KDC1 111202Z 00000KT 19/17 A3016 RMK A01 T01920167  RH  086%=      5-min Rain = 0
KDC1 111203Z 00000KT 19/17 A3016 RMK A01 T01910166  RH  085%=      5-min Rain = 0
KDC1 111204Z 00000KT 19/17 A3016 RMK A01 T01910166  RH  085%=      5-min Rain = 0
KDC1 111205Z 17000KT 19/17 A3016 RMK A01 T01910165  RH  085%=      5-min Rain = 0
KDC1 111206Z 18001KT 19/17 A3016 RMK A01 T01910166  RH  085%=      5-min Rain = 0
KDC1 111207Z 18001KT 19/17 A3016 RMK A01 T01910166  RH  085%=      5-min Rain = 0
KDC1 111208Z 16001KT 19/17 A3016 RMK A01 T01910168  RH  087%=      5-min Rain = 0
KDC1 111209Z 16002KT 19/17 A3016 RMK A01 T01910168  RH  087%=      5-min Rain = 0
KDC1 111210Z 16002KT 19/17 A3016 RMK A01 T01910168  RH  086%=      5-min Rain = 0
KDC1 111211Z 16003KT 19/17 A3016 RMK A01 T01910169  RH  087%=      5-min Rain = 0
KDC1 111212Z 15003KT 19/17 A3016 RMK A01 T01910169  RH  087%=      5-min Rain = 0
KDC1 111213Z 15002KT 19/17 A3016 RMK A01 T01910169  RH  087%=      5-min Rain = 0
KDC1 111214Z 15003KT 19/17 A3016 RMK A01 T01910171  RH  088%=      5-min Rain = 0
KDC1 111215Z 15002KT 19/17 A3016 RMK A01 T01910173  RH  089%=      5-min Rain = 0
KDC1 111216Z 15002KT 19/17 A3016 RMK A01 T01900173  RH  090%=      5-min Rain = 0
KDC1 111217Z 15002KT 19/17 A3016 RMK A01 T01900172  RH  089%=      5-min Rain = 0
KDC1 111218Z 16002KT 19/17 A3016 RMK A01 T01900170  RH  089%=      5-min Rain = 0
KDC1 111219Z 15001KT 19/17 A3016 RMK A01 T01900171  RH  088%=      5-min Rain = 0
KDC1 111220Z 14002KT 19/17 A3016 RMK A01 T01900171  RH  088%=      5-min Rain = 0
KDC1 111221Z 14002KT 19/17 A3016 RMK A01 T01900171  RH  089%=      5-min Rain = 0
KDC1 111222Z 15002KT 19/17 A3016 RMK A01 T01900171  RH  089%=      5-min Rain = 0
KDC1 111223Z 15001KT 19/17 A3016 RMK A01 T01900171  RH  089%=      5-min Rain = 0
KDC1 111224Z 15001KT 19/17 A3016 RMK A01 T01900171  RH  089%=      5-min Rain = 0
KDC1 111225Z 17001KT 19/17 A3016 RMK A01 T01900171  RH  089%=      5-min Rain = 0
KDC1 111226Z 18001KT 19/17 A3016 RMK A01 T01900171  RH  088%=      5-min Rain = 0
KDC1 111227Z 18000KT 19/17 A3016 RMK A01 T01900170  RH  088%=      5-min Rain = 0
KDC1 111228Z 18000KT 19/17 A3016 RMK A01 T01900171  RH  089%=      5-min Rain = 0
KDC1 111229Z 18000KT 19/17 A3016 RMK A01 T01900171  RH  089%=      5-min Rain = 0
KDC1 111230Z 09000KT 19/17 A3016 RMK A01 T01900170  RH  088%=      5-min Rain = 0
KDC1 111231Z 08003KT 19/17 A3016 RMK A01 T01900171  RH  089%=      5-min Rain = 0
KDC1 111232Z 07004KT 19/17 A3016 RMK A01 T01900173  RH  090%=      5-min Rain = 0
KDC1 111233Z 08003KT 19/17 A3016 RMK A01 T01900174  RH  090%=      5-min Rain = 0
KDC1 111234Z 10003KT 19/17 A3016 RMK A01 T01900173  RH  090%=      5-min Rain = 0
KDC1 111235Z 09003KT 19/17 A3016 RMK A01 T01900173  RH  090%=      5-min Rain = 0
KDC1 111236Z 07004KT 19/17 A3016 RMK A01 T01900173  RH  090%=      5-min Rain = 0
KDC1 111237Z 08004KT 19/17 A3016 RMK A01 T01900173  RH  090%=      5-min Rain = 0
KDC1 111238Z 09002KT 19/17 A3016 RMK A01 T01890173  RH  090%=      5-min Rain = 0
KDC1 111239Z 09002KT 19/17 A3016 RMK A01 T01880172  RH  090%=      5-min Rain = 0
KDC1 111240Z 06002KT 19/17 A3016 RMK A01 T01880172  RH  090%=      5-min Rain = 0
KDC1 111241Z 04003KT 19/17 A3016 RMK A01 T01880173  RH  091%=      5-min Rain = 0
KDC1 111242Z 04003KT 19/17 A3016 RMK A01 T01880173  RH  091%=      5-min Rain = 0
KDC1 111243Z 04003KT 19/17 A3016 RMK A01 T01880172  RH  091%=      5-min Rain = 0
KDC1 111244Z 04003KT 19/17 A3016 RMK A01 T01870172  RH  091%=      5-min Rain = 0
KDC1 111245Z 04003KT 19/17 A3016 RMK A01 T01870172  RH  091%=      5-min Rain = 0
KDC1 111246Z 04002KT 19/17 A3016 RMK A01 T01870172  RH  090%=      5-min Rain = 0
KDC1 111247Z 05002KT 19/17 A3016 RMK A01 T01880173  RH  091%=      5-min Rain = 0
KDC1 111248Z 05002KT 19/17 A3016 RMK A01 T01870171  RH  090%=      5-min Rain = 0
KDC1 111249Z 04002KT 19/17 A3016 RMK A01 T01880171  RH  090%=      5-min Rain = 0
KDC1 111250Z 03002KT 19/17 A3016 RMK A01 T01880172  RH  090%=      5-min Rain = 0
KDC1 111251Z 01002KT 19/17 A3016 RMK A01 T01880172  RH  091%=      5-min Rain = 0
KDC1 111252Z 02003KT 19/17 A3016 RMK A01 T01880172  RH  091%=      5-min Rain = 0
KDC1 111253Z 01003KT 19/17 A3016 RMK A01 T01880170  RH  089%=      5-min Rain = 0
KDC1 111254Z 00003KT 19/17 A3016 RMK A01 T01870171  RH  090%=      5-min Rain = 0
KDC1 111255Z 01002KT 19/17 A3016 RMK A01 T01880174  RH  092%=      5-min Rain = 0
KDC1 111256Z 01002KT 19/17 A3016 RMK A01 T01880174  RH  092%=      5-min Rain = 0
KDC1 111257Z 00002KT 19/17 A3016 RMK A01 T01880174  RH  091%=      5-min Rain = 0
KDC1 111258Z 35002KT 19/17 A3016 RMK A01 T01880174  RH  091%=      5-min Rain = 0
KDC1 111259Z 34001KT 19/17 A3016 RMK A01 T01880174  RH  091%=      5-min Rain = 0
KDC1 111300Z 33001KT 19/18 A3016 RMK A01 T01890175  RH  092%=      5-min Rain = 0
KDC1 111301Z 34001KT 19/18 A3016 RMK A01 T01890175  RH  092%=      5-min Rain = 0
KDC1 111302Z 34002KT 19/17 A3017 RMK A01 T01890174  RH  091%=      5-min Rain = 0
KDC1 111303Z 33001KT 19/17 A3017 RMK A01 T01890174  RH  091%=      5-min Rain = 0
KDC1 111304Z 33001KT 19/18 A3017 RMK A01 T01900175  RH  091%=      5-min Rain = 0
KDC1 111305Z 33002KT 19/18 A3017 RMK A01 T01900175  RH  091%=      5-min Rain = 0
KDC1 111306Z 33002KT 19/18 A3017 RMK A01 T01900175  RH  091%=      5-min Rain = 0
KDC1 111307Z 33002KT 19/18 A3016 RMK A01 T01900175  RH  091%=      5-min Rain = 0
KDC1 111308Z 33002KT 19/18 A3016 RMK A01 T01900175  RH  091%=      5-min Rain = 0
KDC1 111309Z 34002KT 19/18 A3016 RMK A01 T01900175  RH  091%=      5-min Rain = 0
KDC1 111310Z 34001KT 19/18 A3016 RMK A01 T01900175  RH  091%=      5-min Rain = 0
KDC1 111311Z 34002KT 19/18 A3016 RMK A01 T01900175  RH  091%=      5-min Rain = 0
KDC1 111312Z 34002KT 19/17 A3016 RMK A01 T01900174  RH  090%=      5-min Rain = 0
KDC1 111313Z 35002KT 19/17 A3016 RMK A01 T01900174  RH  090%=      5-min Rain = 0
KDC1 111314Z 35001KT 19/17 A3016 RMK A01 T01910174  RH  090%=      5-min Rain = 0
KDC1 111315Z 34001KT 19/17 A3016 RMK A01 T01910173  RH  089%=      5-min Rain = 0
KDC1 111316Z 34001KT 19/17 A3016 RMK A01 T01920174  RH  089%=      5-min Rain = 0
KDC1 111317Z 35001KT 19/17 A3016 RMK A01 T01920174  RH  089%=      5-min Rain = 0
KDC1 111318Z 34000KT 19/18 A3016 RMK A01 T01930175  RH  089%=      5-min Rain = 0
KDC1 111319Z 00000KT 19/18 A3016 RMK A01 T01930175  RH  089%=      5-min Rain = 0
KDC1 111320Z 33000KT 19/18 A3016 RMK A01 T01940175  RH  089%=      5-min Rain = 0
KDC1 111321Z 00000KT 19/18 A3016 RMK A01 T01940175  RH  089%=      5-min Rain = 0
KDC1 111322Z 00000KT 19/18 A3016 RMK A01 T01940175  RH  089%=      5-min Rain = 0
KDC1 111323Z 00000KT 20/18 A3016 RMK A01 T01950175  RH  088%=      5-min Rain = 0
KDC1 111324Z 00000KT 20/17 A3016 RMK A01 T01950174  RH  087%=      5-min Rain = 0
KDC1 111325Z 00000KT 20/17 A3017 RMK A01 T01960174  RH  087%=      5-min Rain = 0
KDC1 111326Z 30000KT 20/17 A3017 RMK A01 T01960173  RH  087%=      5-min Rain = 0
KDC1 111327Z 30001KT 20/17 A3017 RMK A01 T01960173  RH  087%=      5-min Rain = 0
KDC1 111328Z 29001KT 20/17 A3017 RMK A01 T01960174  RH  087%=      5-min Rain = 0
KDC1 111329Z 30001KT 20/17 A3017 RMK A01 T01960174  RH  087%=      5-min Rain = 0
KDC1 111330Z 30001KT 20/18 A3017 RMK A01 T01970175  RH  087%=      5-min Rain = 0
KDC1 111331Z 00000KT 20/18 A3017 RMK A01 T01970176  RH  088%=      5-min Rain = 0
KDC1 111332Z 30000KT 20/18 A3017 RMK A01 T01970175  RH  087%=      5-min Rain = 0
KDC1 111333Z 00000KT 20/18 A3017 RMK A01 T01970176  RH  087%=      5-min Rain = 0
KDC1 111334Z 00000KT 20/18 A3017 RMK A01 T01980177  RH  088%=      5-min Rain = 0
KDC1 111335Z 00000KT 20/18 A3017 RMK A01 T01980177  RH  088%=      5-min Rain = 0
KDC1 111336Z 26000KT 20/18 A3017 RMK A01 T01980176  RH  087%=      5-min Rain = 0
KDC1 111337Z 26000KT 20/18 A3017 RMK A01 T01990176  RH  087%=      5-min Rain = 0
KDC1 111338Z 27001KT 20/18 A3017 RMK A01 T01990175  RH  086%=      5-min Rain = 0
KDC1 111339Z 28001KT 20/18 A3017 RMK A01 T01990175  RH  086%=      5-min Rain = 0
KDC1 111340Z 27001KT 20/18 A3017 RMK A01 T01990175  RH  086%=      5-min Rain = 0
KDC1 111341Z 27001KT 20/18 A3017 RMK A01 T01990176  RH  087%=      5-min Rain = 0
KDC1 111342Z 28002KT 20/18 A3017 RMK A01 T02000178  RH  087%=      5-min Rain = 0
KDC1 111343Z 27002KT 20/18 A3017 RMK A01 T02000175  RH  086%=      5-min Rain = 0
KDC1 111344Z 27002KT 20/17 A3017 RMK A01 T02000174  RH  085%=      5-min Rain = 0
KDC1 111345Z 27002KT 20/18 A3017 RMK A01 T02000176  RH  086%=      5-min Rain = 0
KDC1 111346Z 27002KT 20/18 A3017 RMK A01 T02000177  RH  087%=      5-min Rain = 0
KDC1 111347Z 27002KT 20/18 A3017 RMK A01 T02000178  RH  087%=      5-min Rain = 0
KDC1 111348Z 26002KT 20/18 A3017 RMK A01 T02010178  RH  087%=      5-min Rain = 0
KDC1 111349Z 26002KT 20/18 A3017 RMK A01 T02010175  RH  085%=      5-min Rain = 0
KDC1 111350Z 26002KT 20/17 A3017 RMK A01 T02010174  RH  084%=      5-min Rain = 0
KDC1 111351Z 24002KT 20/18 A3018 RMK A01 T02010176  RH  085%=      5-min Rain = 0
KDC1 111352Z 23002KT 20/18 A3018 RMK A01 T02020179  RH  087%=      5-min Rain = 0
KDC1 111353Z 23002KT 20/18 A3018 RMK A01 T02020179  RH  086%=      5-min Rain = 0
KDC1 111354Z 22002KT 20/18 A3018 RMK A01 T02020178  RH  086%=      5-min Rain = 0
KDC1 111355Z 22001KT 20/18 A3018 RMK A01 T02030178  RH  086%=      5-min Rain = 0
KDC1 111356Z 22001KT 20/18 A3018 RMK A01 T02030180  RH  086%=      5-min Rain = 0
KDC1 111357Z 22001KT 20/18 A3018 RMK A01 T02030180  RH  086%=      5-min Rain = 0
KDC1 111358Z 21001KT 20/18 A3018 RMK A01 T02030181  RH  087%=      5-min Rain = 0
KDC1 111359Z 20002KT 20/18 A3018 RMK A01 T02040179  RH  086%=      5-min Rain = 0
KDC1 111400Z 21003KT 20/18 A3018 RMK A01 T02030176  RH  084%=      5-min Rain = 0
KDC1 111401Z 21002KT 20/18 A3018 RMK A01 T02030176  RH  084%=      5-min Rain = 0
KDC1 111402Z 21003KT 20/18 A3018 RMK A01 T02030177  RH  085%=      5-min Rain = 0
KDC1 111403Z 21002KT 20/18 A3018 RMK A01 T02030177  RH  085%=      5-min Rain = 0
KDC1 111404Z 20003KT 20/18 A3018 RMK A01 T02040177  RH  085%=      5-min Rain = 0
KDC1 111405Z 20002KT 20/18 A3018 RMK A01 T02040175  RH  084%=      5-min Rain = 0
KDC1 111406Z 21002KT 20/18 A3018 RMK A01 T02040175  RH  083%=      5-min Rain = 0
KDC1 111407Z 21002KT 21/17 A3018 RMK A01 T02050174  RH  083%=      5-min Rain = 0
KDC1 111408Z 20002KT 21/17 A3018 RMK A01 T02050174  RH  083%=      5-min Rain = 0
KDC1 111409Z 19002KT 21/18 A3018 RMK A01 T02050175  RH  083%=      5-min Rain = 0
KDC1 111410Z 20001KT 21/18 A3018 RMK A01 T02060177  RH  083%=      5-min Rain = 0
KDC1 111411Z 17001KT 21/18 A3018 RMK A01 T02060177  RH  083%=      5-min Rain = 0
KDC1 111412Z 18002KT 21/17 A3018 RMK A01 T02060174  RH  082%=      5-min Rain = 0
KDC1 111413Z 18003KT 21/17 A3018 RMK A01 T02060171  RH  080%=      5-min Rain = 0
KDC1 111414Z 19002KT 21/17 A3018 RMK A01 T02070171  RH  080%=      5-min Rain = 0
KDC1 111415Z 17002KT 21/17 A3018 RMK A01 T02070172  RH  080%=      5-min Rain = 0
KDC1 111416Z 19002KT 21/17 A3018 RMK A01 T02070171  RH  080%=      5-min Rain = 0
KDC1 111417Z 20001KT 21/17 A3018 RMK A01 T02070170  RH  079%=      5-min Rain = 0
KDC1 111418Z 20003KT 21/17 A3018 RMK A01 T02070169  RH  079%=      5-min Rain = 0
KDC1 111419Z 20002KT 21/17 A3018 RMK A01 T02070168  RH  078%=      5-min Rain = 0
KDC1 111420Z 19002KT 21/17 A3019 RMK A01 T02070169  RH  079%=      5-min Rain = 0
KDC1 111421Z 21002KT 21/17 A3019 RMK A01 T02070168  RH  078%=      5-min Rain = 0
KDC1 111422Z 20001KT 21/17 A3019 RMK A01 T02080167  RH  078%=      5-min Rain = 0
KDC1 111423Z 19001KT 21/17 A3019 RMK A01 T02080169  RH  078%=      5-min Rain = 0
KDC1 111424Z 00000KT 21/17 A3019 RMK A01 T02080171  RH  079%=      5-min Rain = 0
KDC1 111425Z 00000KT 21/17 A3019 RMK A01 T02090173  RH  080%=      5-min Rain = 0
KDC1 111426Z 21001KT 21/17 A3019 RMK A01 T02090170  RH  078%=      5-min Rain = 0
KDC1 111427Z 20001KT 21/17 A3019 RMK A01 T02090168  RH  077%=      5-min Rain = 0
KDC1 111428Z 22001KT 21/17 A3019 RMK A01 T02090169  RH  078%=      5-min Rain = 0
KDC1 111429Z 19001KT 21/17 A3019 RMK A01 T02090169  RH  078%=      5-min Rain = 0
KDC1 111430Z 20001KT 21/17 A3019 RMK A01 T02090168  RH  077%=      5-min Rain = 0
KDC1 111431Z 19001KT 21/17 A3019 RMK A01 T02090169  RH  078%=      5-min Rain = 0
KDC1 111432Z 19001KT 21/17 A3019 RMK A01 T02100172  RH  079%=      5-min Rain = 0
KDC1 111433Z 18001KT 21/17 A3019 RMK A01 T02100171  RH  078%=      5-min Rain = 0
KDC1 111434Z 17001KT 21/17 A3019 RMK A01 T02100170  RH  077%=      5-min Rain = 0
KDC1 111435Z 17001KT 21/17 A3019 RMK A01 T02110171  RH  078%=      5-min Rain = 0
KDC1 111436Z 16001KT 21/17 A3019 RMK A01 T02110167  RH  076%=      5-min Rain = 0
KDC1 111437Z 16001KT 21/17 A3019 RMK A01 T02110170  RH  078%=      5-min Rain = 0
KDC1 111438Z 20001KT 21/17 A3019 RMK A01 T02110171  RH  078%=      5-min Rain = 0
KDC1 111439Z 21001KT 21/17 A3019 RMK A01 T02120170  RH  077%=      5-min Rain = 0
KDC1 111440Z 20001KT 21/17 A3019 RMK A01 T02120167  RH  075%=      5-min Rain = 0
KDC1 111441Z 21000KT 21/17 A3019 RMK A01 T02120168  RH  076%=      5-min Rain = 0
KDC1 111442Z 20001KT 21/17 A3019 RMK A01 T02130169  RH  076%=      5-min Rain = 0
KDC1 111443Z 20001KT 21/17 A3019 RMK A01 T02130166  RH  075%=      5-min Rain = 0
KDC1 111444Z 18002KT 21/17 A3019 RMK A01 T02120165  RH  074%=      5-min Rain = 0
KDC1 111445Z 17000KT 21/17 A3019 RMK A01 T02130167  RH  075%=      5-min Rain = 0
KDC1 111446Z 18001KT 21/17 A3019 RMK A01 T02130172  RH  077%=      5-min Rain = 0
KDC1 111447Z 19002KT 21/17 A3018 RMK A01 T02140172  RH  077%=      5-min Rain = 0
KDC1 111448Z 19001KT 21/17 A3018 RMK A01 T02140168  RH  075%=      5-min Rain = 0
KDC1 111449Z 18001KT 21/17 A3018 RMK A01 T02140168  RH  075%=      5-min Rain = 0
KDC1 111450Z 17001KT 21/17 A3018 RMK A01 T02140168  RH  075%=      5-min Rain = 0
KDC1 111451Z 16002KT 21/17 A3018 RMK A01 T02140168  RH  075%=      5-min Rain = 0
KDC1 111452Z 16002KT 21/17 A3018 RMK A01 T02140169  RH  075%=      5-min Rain = 0
KDC1 111453Z 17002KT 22/17 A3018 RMK A01 T02150168  RH  075%=      5-min Rain = 0
KDC1 111454Z 17001KT 22/17 A3018 RMK A01 T02150168  RH  075%=      5-min Rain = 0
KDC1 111455Z 17002KT 22/17 A3018 RMK A01 T02150167  RH  074%=      5-min Rain = 0
KDC1 111456Z 17002KT 22/17 A3018 RMK A01 T02150169  RH  075%=      5-min Rain = 0
KDC1 111457Z 17001KT 22/17 A3018 RMK A01 T02150171  RH  076%=      5-min Rain = 0
KDC1 111458Z 16002KT 22/17 A3018 RMK A01 T02160172  RH  076%=      5-min Rain = 0
KDC1 111459Z 16002KT 22/17 A3018 RMK A01 T02160169  RH  075%=      5-min Rain = 0
KDC1 111500Z 15002KT 22/17 A3018 RMK A01 T02160170  RH  075%=      5-min Rain = 0
KDC1 111501Z 15002KT 22/17 A3018 RMK A01 T02160170  RH  075%=      5-min Rain = 0
KDC1 111502Z 15002KT 22/17 A3018 RMK A01 T02160168  RH  074%=      5-min Rain = 0
KDC1 111503Z 15002KT 22/17 A3018 RMK A01 T02160173  RH  076%=      5-min Rain = 0
KDC1 111504Z 15002KT 22/17 A3019 RMK A01 T02160173  RH  077%=      5-min Rain = 0
KDC1 111505Z 16002KT 22/18 A3019 RMK A01 T02160176  RH  078%=      5-min Rain = 0
KDC1 111506Z 15001KT 22/17 A3019 RMK A01 T02160174  RH  077%=      5-min Rain = 0
KDC1 111507Z 15002KT 22/17 A3019 RMK A01 T02160173  RH  077%=      5-min Rain = 0
KDC1 111508Z 15002KT 22/18 A3019 RMK A01 T02160177  RH  078%=      5-min Rain = 0
KDC1 111509Z 18001KT 22/17 A3019 RMK A01 T02160174  RH  077%=      5-min Rain = 0
KDC1 111510Z 18001KT 22/17 A3019 RMK A01 T02160174  RH  077%=      5-min Rain = 0
KDC1 111511Z 24002KT 22/17 A3019 RMK A01 T02170173  RH  076%=      5-min Rain = 0
KDC1 111512Z 24003KT 22/17 A3019 RMK A01 T02170173  RH  076%=      5-min Rain = 0
KDC1 111513Z 25003KT 22/17 A3019 RMK A01 T02170173  RH  076%=      5-min Rain = 0
KDC1 111514Z 25003KT 22/17 A3019 RMK A01 T02160173  RH  076%=      5-min Rain = 0
KDC1 111515Z 24002KT 22/17 A3019 RMK A01 T02160171  RH  075%=      5-min Rain = 0
KDC1 111516Z 23002KT 22/17 A3019 RMK A01 T02170173  RH  076%=      5-min Rain = 0
KDC1 111517Z 25002KT 22/17 A3019 RMK A01 T02160171  RH  075%=      5-min Rain = 0
KDC1 111518Z 26002KT 22/17 A3019 RMK A01 T02170169  RH  074%=      5-min Rain = 0
KDC1 111519Z 25002KT 22/17 A3019 RMK A01 T02160170  RH  075%=      5-min Rain = 0
KDC1 111520Z 27001KT 22/17 A3019 RMK A01 T02170170  RH  074%=      5-min Rain = 0
KDC1 111521Z 27002KT 22/17 A3019 RMK A01 T02170170  RH  074%=      5-min Rain = 0
KDC1 111522Z 29001KT 22/17 A3019 RMK A01 T02170173  RH  076%=      5-min Rain = 0
KDC1 111523Z 30001KT 22/17 A3019 RMK A01 T02180170  RH  074%=      5-min Rain = 0
KDC1 111524Z 29001KT 22/17 A3019 RMK A01 T02180169  RH  074%=      5-min Rain = 0
KDC1 111525Z 30001KT 22/17 A3019 RMK A01 T02190169  RH  073%=      5-min Rain = 0
KDC1 111526Z 30000KT 22/17 A3019 RMK A01 T02190167  RH  072%=      5-min Rain = 0
KDC1 111527Z 00000KT 22/17 A3019 RMK A01 T02190168  RH  073%=      5-min Rain = 0
KDC1 111528Z 29000KT 22/17 A3019 RMK A01 T02190168  RH  073%=      5-min Rain = 0
KDC1 111529Z 00000KT 22/17 A3019 RMK A01 T02200167  RH  072%=      5-min Rain = 0
KDC1 111530Z 00000KT 22/17 A3019 RMK A01 T02210167  RH  072%=      5-min Rain = 0
KDC1 111531Z 00000KT 22/17 A3019 RMK A01 T02220168  RH  072%=      5-min Rain = 0
KDC1 111532Z 00000KT 22/17 A3019 RMK A01 T02240172  RH  072%=      5-min Rain = 0
KDC1 111533Z 07000KT 23/18 A3019 RMK A01 T02260175  RH  073%=      5-min Rain = 0
KDC1 111534Z 09001KT 23/17 A3019 RMK A01 T02270170  RH  070%=      5-min Rain = 0
KDC1 111535Z 10001KT 23/17 A3019 RMK A01 T02270168  RH  069%=      5-min Rain = 0
KDC1 111536Z 10001KT 23/17 A3019 RMK A01 T02260168  RH  070%=      5-min Rain = 0
KDC1 111537Z 08002KT 23/17 A3019 RMK A01 T02260173  RH  072%=      5-min Rain = 0
KDC1 111538Z 08002KT 23/18 A3019 RMK A01 T02260176  RH  073%=      5-min Rain = 0
KDC1 111539Z 07003KT 23/18 A3019 RMK A01 T02250179  RH  075%=      5-min Rain = 0
KDC1 111540Z 06003KT 22/18 A3019 RMK A01 T02240180  RH  076%=      5-min Rain = 0
KDC1 111541Z 05003KT 22/18 A3019 RMK A01 T02230180  RH  076%=      5-min Rain = 0
KDC1 111542Z 06002KT 22/18 A3019 RMK A01 T02220178  RH  076%=      5-min Rain = 0
KDC1 111543Z 07002KT 22/18 A3019 RMK A01 T02210177  RH  076%=      5-min Rain = 0
KDC1 111544Z 07003KT 22/18 A3019 RMK A01 T02200177  RH  077%=      5-min Rain = 0
KDC1 111545Z 07003KT 22/18 A3019 RMK A01 T02200178  RH  077%=      5-min Rain = 0
KDC1 111546Z 09003KT 22/18 A3019 RMK A01 T02210178  RH  077%=      5-min Rain = 0
KDC1 111547Z 07003KT 22/18 A3019 RMK A01 T02210179  RH  077%=      5-min Rain = 0
KDC1 111548Z 06003KT 22/18 A3019 RMK A01 T02220179  RH  077%=      5-min Rain = 0
KDC1 111549Z 06003KT 22/18 A3019 RMK A01 T02220179  RH  077%=      5-min Rain = 0
KDC1 111550Z 08003KT 22/18 A3019 RMK A01 T02220177  RH  076%=      5-min Rain = 0
KDC1 111551Z 08003KT 22/18 A3019 RMK A01 T02220176  RH  075%=      5-min Rain = 0
KDC1 111552Z 06003KT 22/18 A3019 RMK A01 T02220179  RH  077%=      5-min Rain = 0
KDC1 111553Z 08002KT 22/18 A3019 RMK A01 T02230181  RH  078%=      5-min Rain = 0
KDC1 111554Z 09002KT 22/18 A3019 RMK A01 T02240179  RH  075%=      5-min Rain = 0
KDC1 111555Z 10002KT 22/18 A3019 RMK A01 T02240176  RH  074%=      5-min Rain = 0
KDC1 111556Z 09003KT 22/18 A3019 RMK A01 T02240176  RH  074%=      5-min Rain = 0
KDC1 111557Z 08003KT 22/18 A3019 RMK A01 T02240177  RH  074%=      5-min Rain = 0
KDC1 111558Z 09003KT 22/18 A3019 RMK A01 T02240180  RH  076%=      5-min Rain = 0
KDC1 111559Z 09003KT 23/18 A3019 RMK A01 T02250179  RH  075%=      5-min Rain = 0
KDC1 111600Z 10003KT 23/18 A3019 RMK A01 T02260178  RH  074%=      5-min Rain = 0
KDC1 111601Z 10003KT 23/18 A3019 RMK A01 T02260177  RH  074%=      5-min Rain = 0
KDC1 111602Z 11003KT 23/18 A3019 RMK A01 T02260176  RH  073%=      5-min Rain = 0
KDC1 111603Z 11003KT 23/17 A3018 RMK A01 T02260174  RH  073%=      5-min Rain = 0
KDC1 111604Z 11003KT 23/18 A3019 RMK A01 T02260175  RH  073%=      5-min Rain = 0
KDC1 111605Z 11003KT 23/18 A3019 RMK A01 T02260177  RH  074%=      5-min Rain = 0
KDC1 111606Z 12004KT 23/18 A3019 RMK A01 T02260178  RH  074%=      5-min Rain = 0
KDC1 111607Z 11003KT 23/18 A3018 RMK A01 T02270177  RH  074%=      5-min Rain = 0
KDC1 111608Z 10003KT 23/18 A3018 RMK A01 T02270177  RH  073%=      5-min Rain = 0
KDC1 111609Z 09004KT 23/18 A3018 RMK A01 T02270177  RH  073%=      5-min Rain = 0
KDC1 111610Z 08004KT 23/18 A3018 RMK A01 T02280177  RH  073%=      5-min Rain = 0
KDC1 111611Z 10004KT 23/18 A3018 RMK A01 T02280179  RH  074%=      5-min Rain = 0
KDC1 111612Z 11003KT 23/18 A3018 RMK A01 T02300178  RH  073%=      5-min Rain = 0
KDC1 111613Z 11003KT 23/18 A3018 RMK A01 T02310177  RH  071%=      5-min Rain = 0
KDC1 111614Z 10004KT 23/18 A3018 RMK A01 T02320175  RH  070%=      5-min Rain = 0
KDC1 111615Z 10003KT 23/18 A3018 RMK A01 T02320176  RH  071%=      5-min Rain = 0
KDC1 111616Z 09003KT 23/18 A3018 RMK A01 T02310176  RH  071%=      5-min Rain = 0
KDC1 111617Z 09004KT 23/18 A3018 RMK A01 T02310175  RH  071%=      5-min Rain = 0
KDC1 111618Z 10004KT 23/17 A3018 RMK A01 T02310174  RH  070%=      5-min Rain = 0
KDC1 111619Z 10004KT 23/18 A3018 RMK A01 T02310177  RH  071%=      5-min Rain = 0
KDC1 111620Z 11003KT 23/18 A3018 RMK A01 T02320176  RH  071%=      5-min Rain = 0
KDC1 111621Z 08003KT 23/18 A3018 RMK A01 T02310175  RH  071%=      5-min Rain = 0
KDC1 111622Z 10005KT 23/18 A3018 RMK A01 T02320177  RH  071%=      5-min Rain = 0
KDC1 111623Z 10004KT 23/18 A3018 RMK A01 T02320176  RH  071%=      5-min Rain = 0
KDC1 111624Z 09003KT 23/18 A3018 RMK A01 T02330177  RH  071%=      5-min Rain = 0
KDC1 111625Z 09003KT 23/18 A3018 RMK A01 T02330176  RH  070%=      5-min Rain = 0
KDC1 111626Z 09004KT 23/18 A3018 RMK A01 T02340177  RH  070%=      5-min Rain = 0
KDC1 111627Z 08004KT 23/18 A3018 RMK A01 T02340176  RH  070%=      5-min Rain = 0
KDC1 111628Z 08003KT 23/18 A3018 RMK A01 T02340176  RH  069%=      5-min Rain = 0
KDC1 111629Z 09003KT 23/18 A3018 RMK A01 T02340176  RH  070%=      5-min Rain = 0
KDC1 111630Z 09003KT 24/18 A3018 RMK A01 T02360178  RH  070%=      5-min Rain = 0
KDC1 111631Z 09004KT 24/18 A3018 RMK A01 T02370177  RH  069%=      5-min Rain = 0
KDC1 111632Z 09004KT 24/18 A3018 RMK A01 T02380176  RH  068%=      5-min Rain = 0
KDC1 111633Z 11003KT 24/18 A3018 RMK A01 T02370176  RH  068%=      5-min Rain = 0
KDC1 111634Z 10002KT 24/18 A3018 RMK A01 T02370177  RH  069%=      5-min Rain = 0
KDC1 111635Z 10003KT 24/18 A3018 RMK A01 T02370178  RH  069%=      5-min Rain = 0
KDC1 111636Z 10004KT 24/18 A3018 RMK A01 T02370177  RH  069%=      5-min Rain = 0
KDC1 111637Z 10003KT 24/18 A3018 RMK A01 T02380176  RH  068%=      5-min Rain = 0
KDC1 111638Z 10003KT 24/17 A3018 RMK A01 T02390174  RH  067%=      5-min Rain = 0
KDC1 111639Z 08003KT 24/18 A3018 RMK A01 T02400177  RH  068%=      5-min Rain = 0
KDC1 111640Z 09003KT 24/18 A3018 RMK A01 T02400176  RH  067%=      5-min Rain = 0
KDC1 111641Z 09003KT 24/18 A3018 RMK A01 T02400176  RH  067%=      5-min Rain = 0
KDC1 111642Z 09003KT 24/18 A3018 RMK A01 T02410176  RH  067%=      5-min Rain = 0
KDC1 111643Z 10004KT 24/18 A3018 RMK A01 T02410179  RH  068%=      5-min Rain = 0
KDC1 111644Z 10004KT 24/18 A3018 RMK A01 T02420179  RH  068%=      5-min Rain = 0
KDC1 111645Z 11005KT 24/18 A3018 RMK A01 T02430177  RH  066%=      5-min Rain = 0
KDC1 111646Z 11004KT 24/18 A3018 RMK A01 T02430178  RH  067%=      5-min Rain = 0
KDC1 111647Z 11003KT 24/18 A3018 RMK A01 T02420176  RH  066%=      5-min Rain = 0
KDC1 111648Z 13005KT 24/18 A3018 RMK A01 T02420176  RH  066%=      5-min Rain = 0
KDC1 111649Z 12005KT 24/18 A3018 RMK A01 T02430177  RH  067%=      5-min Rain = 0
KDC1 111650Z 13005KT 24/17 A3018 RMK A01 T02440173  RH  065%=      5-min Rain = 0
KDC1 111651Z 12005KT 24/18 A3018 RMK A01 T02440176  RH  066%=      5-min Rain = 0
KDC1 111652Z 13004KT 24/18 A3018 RMK A01 T02440176  RH  066%=      5-min Rain = 0
KDC1 111653Z 13004KT 24/18 A3018 RMK A01 T02440175  RH  065%=      5-min Rain = 0
KDC1 111654Z 13004KT 24/18 A3018 RMK A01 T02440177  RH  066%=      5-min Rain = 0
KDC1 111655Z 13005KT 24/17 A3018 RMK A01 T02440174  RH  065%=      5-min Rain = 0
KDC1 111656Z 12005KT 25/18 A3018 RMK A01 T02450175  RH  065%=      5-min Rain = 0
KDC1 111657Z 12004KT 25/17 A3018 RMK A01 T02450172  RH  064%=      5-min Rain = 0
KDC1 111658Z 12004KT 25/17 A3018 RMK A01 T02450172  RH  064%=      5-min Rain = 0
KDC1 111659Z 12003KT 25/17 A3018 RMK A01 T02450174  RH  065%=      5-min Rain = 0
KDC1 111700Z 12004KT 25/18 A3018 RMK A01 T02450177  RH  066%=      5-min Rain = 0
KDC1 111701Z 13004KT 25/18 A3018 RMK A01 T02450176  RH  066%=      5-min Rain = 0
KDC1 111702Z 12004KT 25/18 A3018 RMK A01 T02450180  RH  067%=      5-min Rain = 0
KDC1 111703Z 12004KT 25/18 A3018 RMK A01 T02450177  RH  066%=      5-min Rain = 0
KDC1 111704Z 11003KT 25/18 A3018 RMK A01 T02460177  RH  065%=      5-min Rain = 0
KDC1 111705Z 10003KT 25/18 A3018 RMK A01 T02460176  RH  065%=      5-min Rain = 0
KDC1 111706Z 10003KT 25/17 A3018 RMK A01 T02470174  RH  064%=      5-min Rain = 0
KDC1 111707Z 12003KT 25/18 A3018 RMK A01 T02460176  RH  065%=      5-min Rain = 0
KDC1 111708Z 12003KT 25/17 A3018 RMK A01 T02460173  RH  064%=      5-min Rain = 0
KDC1 111709Z 13003KT 25/18 A3018 RMK A01 T02460175  RH  064%=      5-min Rain = 0
KDC1 111710Z 13003KT 25/18 A3018 RMK A01 T02460175  RH  065%=      5-min Rain = 0
KDC1 111711Z 12004KT 25/18 A3018 RMK A01 T02460176  RH  065%=      5-min Rain = 0
KDC1 111712Z 13004KT 25/18 A3018 RMK A01 T02460178  RH  065%=      5-min Rain = 0
KDC1 111713Z 13004KT 25/18 A3018 RMK A01 T02470177  RH  065%=      5-min Rain = 0
KDC1 111714Z 14003KT 25/18 A3018 RMK A01 T02470178  RH  065%=      5-min Rain = 0
KDC1 111715Z 14003KT 25/18 A3018 RMK A01 T02480176  RH  064%=      5-min Rain = 0
KDC1 111716Z 12003KT 25/18 A3018 RMK A01 T02480177  RH  065%=      5-min Rain = 0
KDC1 111717Z 12003KT 25/18 A3018 RMK A01 T02490175  RH  063%=      5-min Rain = 0
KDC1 111718Z 13004KT 25/18 A3017 RMK A01 T02500176  RH  064%=      5-min Rain = 0
KDC1 111719Z 13003KT 25/17 A3017 RMK A01 T02500174  RH  063%=      5-min Rain = 0
KDC1 111720Z 13002KT 25/18 A3017 RMK A01 T02500176  RH  063%=      5-min Rain = 0
KDC1 111721Z 15003KT 25/18 A3017 RMK A01 T02510181  RH  065%=      5-min Rain = 0
KDC1 111722Z 13003KT 25/18 A3017 RMK A01 T02530181  RH  064%=      5-min Rain = 0
KDC1 111723Z 12003KT 25/18 A3017 RMK A01 T02540178  RH  063%=      5-min Rain = 0
KDC1 111724Z 12003KT 26/17 A3017 RMK A01 T02550173  RH  060%=      5-min Rain = 0
KDC1 111725Z 15003KT 26/17 A3017 RMK A01 T02550174  RH  061%=      5-min Rain = 0
KDC1 111726Z 16003KT 26/17 A3017 RMK A01 T02560171  RH  059%=      5-min Rain = 0
KDC1 111727Z 17004KT 26/17 A3017 RMK A01 T02560174  RH  060%=      5-min Rain = 0
KDC1 111728Z 16003KT 26/17 A3017 RMK A01 T02570174  RH  060%=      5-min Rain = 0
KDC1 111729Z 15003KT 26/18 A3017 RMK A01 T02580178  RH  061%=      5-min Rain = 0
KDC1 111730Z 16004KT 26/18 A3017 RMK A01 T02590177  RH  060%=      5-min Rain = 0
KDC1 111731Z 16003KT 26/17 A3017 RMK A01 T02590171  RH  058%=      5-min Rain = 0
KDC1 111732Z 15003KT 26/18 A3017 RMK A01 T02590176  RH  060%=      5-min Rain = 0
KDC1 111733Z 15002KT 26/17 A3017 RMK A01 T02590173  RH  059%=      5-min Rain = 0
KDC1 111734Z 17002KT 26/17 A3017 RMK A01 T02590173  RH  059%=      5-min Rain = 0
KDC1 111735Z 14002KT 26/18 A3017 RMK A01 T02600176  RH  060%=      5-min Rain = 0
KDC1 111736Z 17001KT 26/18 A3017 RMK A01 T02600176  RH  060%=      5-min Rain = 0
KDC1 111737Z 16002KT 26/18 A3017 RMK A01 T02610179  RH  060%=      5-min Rain = 0
KDC1 111738Z 14003KT 26/18 A3017 RMK A01 T02630177  RH  059%=      5-min Rain = 0
KDC1 111739Z 11005KT 26/18 A3017 RMK A01 T02640179  RH  059%=      5-min Rain = 0
KDC1 111740Z 12004KT 26/18 A3017 RMK A01 T02640177  RH  059%=      5-min Rain = 0
KDC1 111741Z 13003KT 26/18 A3017 RMK A01 T02620176  RH  059%=      5-min Rain = 0
KDC1 111742Z 13003KT 26/17 A3017 RMK A01 T02610174  RH  059%=      5-min Rain = 0
KDC1 111743Z 13004KT 26/18 A3017 RMK A01 T02600177  RH  060%=      5-min Rain = 0
KDC1 111744Z 12004KT 26/18 A3017 RMK A01 T02610175  RH  059%=      5-min Rain = 0
KDC1 111745Z 14002KT 26/18 A3017 RMK A01 T02610175  RH  059%=      5-min Rain = 0
KDC1 111746Z 12004KT 26/18 A3017 RMK A01 T02620176  RH  059%=      5-min Rain = 0
KDC1 111747Z 10003KT 26/18 A3017 RMK A01 T02630176  RH  059%=      5-min Rain = 0
KDC1 111748Z 12005KT 26/18 A3017 RMK A01 T02640176  RH  059%=      5-min Rain = 0
KDC1 111749Z 12005KT 27/17 A3017 RMK A01 T02650173  RH  057%=      5-min Rain = 0
KDC1 111750Z 11006KT 27/17 A3017 RMK A01 T02660168  RH  055%=      5-min Rain = 0
KDC1 111751Z 12004KT 27/17 A3017 RMK A01 T02670170  RH  055%=      5-min Rain = 0
KDC1 111752Z 14004KT 27/17 A3017 RMK A01 T02670172  RH  056%=      5-min Rain = 0
KDC1 111753Z 14004KT 27/17 A3017 RMK A01 T02660174  RH  057%=      5-min Rain = 0
KDC1 111754Z 12005KT 27/18 A3017 RMK A01 T02680177  RH  057%=      5-min Rain = 0
KDC1 111755Z 13006KT 27/17 A3016 RMK A01 T02690174  RH  056%=      5-min Rain = 0
KDC1 111756Z 14006KT 27/17 A3017 RMK A01 T02680172  RH  056%=      5-min Rain = 0
KDC1 111757Z 14005KT 27/17 A3017 RMK A01 T02670170  RH  055%=      5-min Rain = 0
KDC1 111758Z 14004KT 27/17 A3017 RMK A01 T02670165  RH  053%=      5-min Rain = 0
KDC1 111759Z 15003KT 27/16 A3017 RMK A01 T02670164  RH  053%=      5-min Rain = 0
KDC1 111800Z 14003KT 27/16 A3016 RMK A01 T02670164  RH  053%=      5-min Rain = 0
KDC1 111801Z 14003KT 27/17 A3016 RMK A01 T02670167  RH  054%=      5-min Rain = 0
KDC1 111802Z 13003KT 27/17 A3016 RMK A01 T02670170  RH  055%=      5-min Rain = 0
KDC1 111803Z 15004KT 27/17 A3016 RMK A01 T02670172  RH  056%=      5-min Rain = 0
KDC1 111804Z 15005KT 27/17 A3016 RMK A01 T02690170  RH  054%=      5-min Rain = 0
KDC1 111805Z 15006KT 27/17 A3016 RMK A01 T02710165  RH  052%=      5-min Rain = 0
KDC1 111806Z 14005KT 27/17 A3016 RMK A01 T02720168  RH  053%=      5-min Rain = 0
KDC1 111807Z 14005KT 27/17 A3016 RMK A01 T02730165  RH  052%=      5-min Rain = 0
KDC1 111808Z 15005KT 27/17 A3016 RMK A01 T02740166  RH  052%=      5-min Rain = 0
KDC1 111809Z 14004KT 28/16 A3016 RMK A01 T02750164  RH  051%=      5-min Rain = 0
KDC1 111810Z 14004KT 28/17 A3016 RMK A01 T02750165  RH  051%=      5-min Rain = 0
KDC1 111811Z 12004KT 28/16 A3016 RMK A01 T02750162  RH  050%=      5-min Rain = 0
KDC1 111812Z 12004KT 28/17 A3016 RMK A01 T02750167  RH  052%=      5-min Rain = 0
KDC1 111813Z 14005KT 28/16 A3016 RMK A01 T02750163  RH  050%=      5-min Rain = 0
KDC1 111814Z 13005KT 28/16 A3016 RMK A01 T02750164  RH  051%=      5-min Rain = 0
KDC1 111815Z 13005KT 28/16 A3016 RMK A01 T02750163  RH  050%=      5-min Rain = 0
KDC1 111816Z 12005KT 28/16 A3016 RMK A01 T02750163  RH  050%=      5-min Rain = 0
KDC1 111817Z 15006KT 28/16 A3016 RMK A01 T02760162  RH  050%=      5-min Rain = 0
KDC1 111818Z 13006KT 28/16 A3016 RMK A01 T02760160  RH  049%=      5-min Rain = 0
KDC1 111819Z 13005KT 28/16 A3016 RMK A01 T02770158  RH  048%=      5-min Rain = 0
KDC1 111820Z 14004KT 28/16 A3016 RMK A01 T02760159  RH  049%=      5-min Rain = 0
KDC1 111821Z 13004KT 28/16 A3016 RMK A01 T02760161  RH  050%=      5-min Rain = 0
KDC1 111822Z 14005KT 28/16 A3016 RMK A01 T02760160  RH  049%=      5-min Rain = 0
KDC1 111823Z 14004KT 28/16 A3016 RMK A01 T02760164  RH  051%=      5-min Rain = 0
KDC1 111824Z 15007KT 28/17 A3016 RMK A01 T02760169  RH  052%=      5-min Rain = 0
KDC1 111825Z 16006KT 28/17 A3016 RMK A01 T02770165  RH  051%=      5-min Rain = 0
KDC1 111826Z 15006KT 28/16 A3016 RMK A01 T02780163  RH  050%=      5-min Rain = 0
KDC1 111827Z 16008KT 28/16 A3016 RMK A01 T02780164  RH  050%=      5-min Rain = 0
KDC1 111828Z 18006KT 28/16 A3016 RMK A01 T02790160  RH  048%=      5-min Rain = 0
KDC1 111829Z 19005KT 28/16 A3016 RMK A01 T02770158  RH  048%=      5-min Rain = 0
KDC1 111830Z 18003KT 28/16 A3016 RMK A01 T02760160  RH  049%=      5-min Rain = 0
KDC1 111831Z 15003KT 28/16 A3016 RMK A01 T02770157  RH  048%=      5-min Rain = 0
KDC1 111832Z 17003KT 28/16 A3015 RMK A01 T02770156  RH  048%=      5-min Rain = 0
KDC1 111833Z 19006KT 28/16 A3015 RMK A01 T02770159  RH  048%=      5-min Rain = 0
KDC1 111834Z 19005KT 28/16 A3015 RMK A01 T02780156  RH  047%=      5-min Rain = 0
KDC1 111835Z 20003KT 28/15 A3015 RMK A01 T02790153  RH  046%=      5-min Rain = 0
KDC1 111836Z 19004KT 28/16 A3015 RMK A01 T02790157  RH  048%=      5-min Rain = 0
KDC1 111837Z 20002KT 28/16 A3015 RMK A01 T02790155  RH  047%=      5-min Rain = 0
KDC1 111838Z 17003KT 28/16 A3015 RMK A01 T02800156  RH  047%=      5-min Rain = 0
KDC1 111839Z 18003KT 28/16 A3015 RMK A01 T02820160  RH  047%=      5-min Rain = 0
KDC1 111840Z 17003KT 28/16 A3015 RMK A01 T02830158  RH  047%=      5-min Rain = 0
KDC1 111841Z 16005KT 28/16 A3015 RMK A01 T02840159  RH  047%=      5-min Rain = 0
KDC1 111842Z 15006KT 28/16 A3015 RMK A01 T02830158  RH  047%=      5-min Rain = 0
KDC1 111843Z 15005KT 28/16 A3015 RMK A01 T02830158  RH  047%=      5-min Rain = 0
KDC1 111844Z 17006KT 28/16 A3015 RMK A01 T02820159  RH  047%=      5-min Rain = 0
KDC1 111845Z 16006KT 28/16 A3015 RMK A01 T02830163  RH  048%=      5-min Rain = 0
KDC1 111846Z 15005KT 28/16 A3015 RMK A01 T02840160  RH  047%=      5-min Rain = 0
KDC1 111847Z 18004KT 28/16 A3015 RMK A01 T02840161  RH  047%=      5-min Rain = 0
KDC1 111848Z 19004KT 29/16 A3015 RMK A01 T02850160  RH  047%=      5-min Rain = 0
KDC1 111849Z 19003KT 29/16 A3015 RMK A01 T02850158  RH  046%=      5-min Rain = 0
KDC1 111850Z 19002KT 28/16 A3015 RMK A01 T02830158  RH  046%=      5-min Rain = 0
KDC1 111851Z 20001KT 28/16 A3015 RMK A01 T02830157  RH  046%=      5-min Rain = 0
KDC1 111852Z 17001KT 28/16 A3014 RMK A01 T02840160  RH  047%=      5-min Rain = 0
KDC1 111853Z 13003KT 29/16 A3014 RMK A01 T02860162  RH  047%=      5-min Rain = 0
KDC1 111854Z 15005KT 29/16 A3014 RMK A01 T02870161  RH  046%=      5-min Rain = 0
KDC1 111855Z 16005KT 29/16 A3014 RMK A01 T02870162  RH  047%=      5-min Rain = 0
KDC1 111856Z 14005KT 29/17 A3014 RMK A01 T02860167  RH  048%=      5-min Rain = 0
KDC1 111857Z 15007KT 29/17 A3014 RMK A01 T02870165  RH  048%=      5-min Rain = 0
KDC1 111858Z 15006KT 29/16 A3014 RMK A01 T02860160  RH  046%=      5-min Rain = 0
KDC1 111859Z 15004KT 28/16 A3014 RMK A01 T02840159  RH  047%=      5-min Rain = 0
KDC1 111900Z 12002KT 28/16 A3014 RMK A01 T02820158  RH  047%=      5-min Rain = 0
KDC1 111901Z 13002KT 28/16 A3014 RMK A01 T02820159  RH  047%=      5-min Rain = 0
KDC1 111902Z 13002KT 28/16 A3014 RMK A01 T02830159  RH  047%=      5-min Rain = 0
KDC1 111903Z 12003KT 28/16 A3014 RMK A01 T02830160  RH  047%=      5-min Rain = 0
KDC1 111904Z 12004KT 28/16 A3014 RMK A01 T02830160  RH  047%=      5-min Rain = 0
KDC1 111905Z 12003KT 28/16 A3014 RMK A01 T02830159  RH  047%=      5-min Rain = 0
KDC1 111906Z 12003KT 28/16 A3014 RMK A01 T02820161  RH  048%=      5-min Rain = 0
KDC1 111907Z 12004KT 28/16 A3014 RMK A01 T02830164  RH  049%=      5-min Rain = 0
KDC1 111908Z 13003KT 28/16 A3014 RMK A01 T02840161  RH  047%=      5-min Rain = 0
KDC1 111909Z 14003KT 28/16 A3014 RMK A01 T02830162  RH  048%=      5-min Rain = 0
KDC1 111910Z 14004KT 28/17 A3014 RMK A01 T02830166  RH  049%=      5-min Rain = 0
KDC1 111911Z 14005KT 28/17 A3014 RMK A01 T02830166  RH  049%=      5-min Rain = 0
KDC1 111912Z 14005KT 28/16 A3013 RMK A01 T02830164  RH  048%=      5-min Rain = 0
KDC1 111913Z 14006KT 28/17 A3013 RMK A01 T02830166  RH  049%=      5-min Rain = 0
KDC1 111914Z 13006KT 28/17 A3013 RMK A01 T02830165  RH  049%=      5-min Rain = 0
KDC1 111915Z 13005KT 28/16 A3013 RMK A01 T02830163  RH  048%=      5-min Rain = 0
KDC1 111916Z 14005KT 28/16 A3013 RMK A01 T02820164  RH  049%=      5-min Rain = 0
KDC1 111917Z 14005KT 28/16 A3013 RMK A01 T02820164  RH  049%=      5-min Rain = 0
KDC1 111918Z 13004KT 28/16 A3013 RMK A01 T02820164  RH  049%=      5-min Rain = 0
KDC1 111919Z 12004KT 28/16 A3013 RMK A01 T02820161  RH  048%=      5-min Rain = 0
KDC1 111920Z 13004KT 28/16 A3013 RMK A01 T02820164  RH  049%=      5-min Rain = 0
KDC1 111921Z 12004KT 28/16 A3013 RMK A01 T02830162  RH  048%=      5-min Rain = 0
KDC1 111922Z 13005KT 28/16 A3013 RMK A01 T02830163  RH  048%=      5-min Rain = 0
KDC1 111923Z 14006KT 28/16 A3013 RMK A01 T02830163  RH  048%=      5-min Rain = 0
KDC1 111924Z 15005KT 28/16 A3013 RMK A01 T02830158  RH  047%=      5-min Rain = 0
KDC1 111925Z 14004KT 28/16 A3013 RMK A01 T02840158  RH  046%=      5-min Rain = 0
KDC1 111926Z 15005KT 28/16 A3013 RMK A01 T02840160  RH  047%=      5-min Rain = 0
KDC1 111927Z 13003KT 28/16 A3013 RMK A01 T02840157  RH  046%=      5-min Rain = 0
KDC1 111928Z 14004KT 28/16 A3012 RMK A01 T02840157  RH  046%=      5-min Rain = 0
KDC1 111929Z 15003KT 28/16 A3012 RMK A01 T02840161  RH  047%=      5-min Rain = 0
KDC1 111930Z 13002KT 29/16 A3012 RMK A01 T02850158  RH  046%=      5-min Rain = 0
KDC1 111931Z 14004KT 29/16 A3012 RMK A01 T02850158  RH  046%=      5-min Rain = 0
KDC1 111932Z 13003KT 29/16 A3012 RMK A01 T02850158  RH  046%=      5-min Rain = 0
KDC1 111933Z 14003KT 29/16 A3012 RMK A01 T02850161  RH  047%=      5-min Rain = 0
KDC1 111934Z 12001KT 29/16 A3012 RMK A01 T02850157  RH  046%=      5-min Rain = 0
KDC1 111935Z 12003KT 29/16 A3012 RMK A01 T02860160  RH  046%=      5-min Rain = 0
KDC1 111936Z 13003KT 29/16 A3012 RMK A01 T02860162  RH  047%=      5-min Rain = 0
KDC1 111937Z 12004KT 29/16 A3012 RMK A01 T02860161  RH  047%=      5-min Rain = 0
KDC1 111938Z 12004KT 29/16 A3012 RMK A01 T02850160  RH  047%=      5-min Rain = 0
KDC1 111939Z 10003KT 28/16 A3012 RMK A01 T02840161  RH  047%=      5-min Rain = 0
KDC1 111940Z 11004KT 28/16 A3012 RMK A01 T02840163  RH  048%=      5-min Rain = 0
KDC1 111941Z 11003KT 29/16 A3011 RMK A01 T02850162  RH  047%=      5-min Rain = 0
KDC1 111942Z 11004KT 29/16 A3011 RMK A01 T02860164  RH  047%=      5-min Rain = 0
KDC1 111943Z 11004KT 29/17 A3011 RMK A01 T02860165  RH  048%=      5-min Rain = 0
KDC1 111944Z 11003KT 29/16 A3011 RMK A01 T02860162  RH  047%=      5-min Rain = 0
KDC1 111945Z 12005KT 29/16 A3011 RMK A01 T02860164  RH  048%=      5-min Rain = 0
KDC1 111946Z 14006KT 29/16 A3011 RMK A01 T02860164  RH  048%=      5-min Rain = 0
KDC1 111947Z 18004KT 29/16 A3011 RMK A01 T02860161  RH  047%=      5-min Rain = 0
KDC1 111948Z 13001KT 29/16 A3011 RMK A01 T02860161  RH  047%=      5-min Rain = 0
KDC1 111949Z 17003KT 29/16 A3011 RMK A01 T02870162  RH  047%=      5-min Rain = 0
KDC1 111950Z 20001KT 29/16 A3011 RMK A01 T02890159  RH  045%=      5-min Rain = 0
KDC1 111951Z 21001KT 29/16 A3011 RMK A01 T02910159  RH  045%=      5-min Rain = 0
KDC1 111952Z 18002KT 29/16 A3011 RMK A01 T02920159  RH  045%=      5-min Rain = 0
KDC1 111953Z 17004KT 29/16 A3011 RMK A01 T02930158  RH  044%=      5-min Rain = 0
KDC1 111954Z 18002KT 30/16 A3011 RMK A01 T02950156  RH  043%=      5-min Rain = 0
KDC1 111955Z 17002KT 30/15 A3011 RMK A01 T02950154  RH  042%=      5-min Rain = 0
KDC1 111956Z 18005KT 30/16 A3011 RMK A01 T02970158  RH  043%=      5-min Rain = 0
KDC1 111957Z 14003KT 30/16 A3011 RMK A01 T02960160  RH  044%=      5-min Rain = 0
KDC1 111958Z 15006KT 30/16 A3011 RMK A01 T02960163  RH  044%=      5-min Rain = 0
KDC1 111959Z 15004KT 30/16 A3011 RMK A01 T02960161  RH  044%=      5-min Rain = 0
KDC1 112000Z 14004KT 30/16 A3011 RMK A01 T02960163  RH  045%=      5-min Rain = 0
KDC1 112001Z 12003KT 30/17 A3011 RMK A01 T02970165  RH  045%=      5-min Rain = 0
KDC1 112002Z 14003KT 30/16 A3011 RMK A01 T02970158  RH  043%=      5-min Rain = 0
KDC1 112003Z 14002KT 30/16 A3011 RMK A01 T02950156  RH  043%=      5-min Rain = 0
KDC1 112004Z 15003KT 30/16 A3011 RMK A01 T02950159  RH  044%=      5-min Rain = 0
KDC1 112005Z 16004KT 30/16 A3011 RMK A01 T02960158  RH  043%=      5-min Rain = 0
KDC1 112006Z 15004KT 30/16 A301 RMK A01 T02970156  RH  043%=      5-min Rain = 0
KDC1 112007Z 14003KT 30/16 A301 RMK A01 T02970159  RH  043%=      5-min Rain = 0
KDC1 112008Z 14004KT 30/16 A301 RMK A01 T02970163  RH  044%=      5-min Rain = 0
KDC1 112009Z 13003KT 30/16 A301 RMK A01 T02970164  RH  045%=      5-min Rain = 0
KDC1 112010Z 14001KT 30/16 A301 RMK A01 T02970163  RH  044%=      5-min Rain = 0
KDC1 112011Z 14004KT 30/16 A301 RMK A01 T02980159  RH  043%=      5-min Rain = 0
KDC1 112012Z 17005KT 30/16 A301 RMK A01 T03000161  RH  043%=      5-min Rain = 0
KDC1 112013Z 18003KT 31/16 A301 RMK A01 T03050158  RH  041%=      5-min Rain = 0
KDC1 112014Z 24002KT 31/16 A301 RMK A01 T03080158  RH  040%=      5-min Rain = 0
KDC1 112015Z 23004KT 31/16 A301 RMK A01 T03100160  RH  040%=      5-min Rain = 0
KDC1 112016Z 23004KT 31/16 A301 RMK A01 T03110157  RH  039%=      5-min Rain = 0
KDC1 112017Z 23003KT 31/15 A301 RMK A01 T03100152  RH  038%=      5-min Rain = 0
KDC1 112018Z 20001KT 31/15 A301 RMK A01 T03080153  RH  039%=      5-min Rain = 0
KDC1 112019Z 17001KT 31/15 A301 RMK A01 T03070154  RH  040%=      5-min Rain = 0
KDC1 112020Z 28002KT 31/15 A301 RMK A01 T03070153  RH  039%=      5-min Rain = 0
KDC1 112021Z 27001KT 31/15 A301 RMK A01 T03060152  RH  039%=      5-min Rain = 0
KDC1 112022Z 31001KT 30/15 A301 RMK A01 T03040152  RH  040%=      5-min Rain = 0
KDC1 112023Z 29001KT 30/15 A301 RMK A01 T03030151  RH  040%=      5-min Rain = 0
KDC1 112024Z 35003KT 30/15 A301 RMK A01 T03020151  RH  040%=      5-min Rain = 0
KDC1 112025Z 05005KT 30/16 A301 RMK A01 T03010156  RH  041%=      5-min Rain = 0
KDC1 112026Z 13006KT 30/16 A301 RMK A01 T03040160  RH  042%=      5-min Rain = 0
KDC1 112027Z 13005KT 31/16 A301 RMK A01 T03050161  RH  042%=      5-min Rain = 0
KDC1 112028Z 13005KT 30/16 A301 RMK A01 T03040163  RH  042%=      5-min Rain = 0
KDC1 112029Z 14006KT 31/16 A301 RMK A01 T03050161  RH  042%=      5-min Rain = 0
KDC1 112030Z 14004KT 30/16 A301 RMK A01 T03040158  RH  041%=      5-min Rain = 0
KDC1 112031Z 13004KT 30/16 A301 RMK A01 T03020158  RH  042%=      5-min Rain = 0
KDC1 112032Z 12004KT 30/16 A3009 RMK A01 T03000157  RH  042%=      5-min Rain = 0
KDC1 112033Z 13005KT 30/16 A3009 RMK A01 T03010158  RH  042%=      5-min Rain = 0
KDC1 112034Z 13005KT 30/16 A3009 RMK A01 T03010156  RH  041%=      5-min Rain = 0
KDC1 112035Z 11004KT 30/16 A3009 RMK A01 T03000157  RH  042%=      5-min Rain = 0
KDC1 112036Z 10004KT 30/15 A3009 RMK A01 T03000153  RH  041%=      5-min Rain = 0
KDC1 112037Z 11004KT 30/15 A3009 RMK A01 T03000153  RH  041%=      5-min Rain = 0
KDC1 112038Z 11004KT 30/15 A3009 RMK A01 T03000153  RH  041%=      5-min Rain = 0
KDC1 112039Z 11003KT 30/16 A3009 RMK A01 T03010156  RH  041%=      5-min Rain = 0
KDC1 112040Z 13003KT 30/16 A3009 RMK A01 T03010157  RH  042%=      5-min Rain = 0
KDC1 112041Z 13004KT 30/16 A3009 RMK A01 T03020157  RH  042%=      5-min Rain = 0
KDC1 112042Z 13002KT 30/16 A3009 RMK A01 T03020158  RH  042%=      5-min Rain = 0
KDC1 112043Z 11003KT 30/16 A3009 RMK A01 T03020157  RH  041%=      5-min Rain = 0
KDC1 112044Z 10004KT 30/16 A3009 RMK A01 T03030155  RH  041%=      5-min Rain = 0
KDC1 112045Z 11004KT 30/16 A3009 RMK A01 T03030155  RH  041%=      5-min Rain = 0
KDC1 112046Z 09003KT 30/15 A3009 RMK A01 T03030151  RH  040%=      5-min Rain = 0
KDC1 112047Z 13001KT 30/15 A3009 RMK A01 T03030151  RH  040%=      5-min Rain = 0
KDC1 112048Z 07002KT 30/15 A3009 RMK A01 T03040152  RH  040%=      5-min Rain = 0
KDC1 112049Z 09003KT 31/15 A3008 RMK A01 T03060154  RH  040%=      5-min Rain = 0
KDC1 112050Z 07003KT 31/16 A3008 RMK A01 T03100156  RH  039%=      5-min Rain = 0
KDC1 112051Z 08002KT 31/15 A3008 RMK A01 T03110154  RH  039%=      5-min Rain = 0
KDC1 112052Z 08004KT 31/15 A3008 RMK A01 T03110154  RH  039%=      5-min Rain = 0
KDC1 112053Z 07003KT 31/16 A3008 RMK A01 T03100155  RH  039%=      5-min Rain = 0
KDC1 112054Z 04004KT 31/15 A3008 RMK A01 T03100154  RH  039%=      5-min Rain = 0
KDC1 112055Z 03003KT 31/15 A3008 RMK A01 T03090153  RH  039%=      5-min Rain = 0
KDC1 112056Z 05004KT 31/16 A3008 RMK A01 T03080155  RH  039%=      5-min Rain = 0
KDC1 112057Z 05002KT 31/15 A3008 RMK A01 T03070153  RH  039%=      5-min Rain = 0
KDC1 112058Z 03002KT 31/15 A3008 RMK A01 T03070154  RH  040%=      5-min Rain = 0
KDC1 112059Z 04004KT 31/16 A3008 RMK A01 T03060156  RH  040%=      5-min Rain = 0
KDC1 112100Z 05004KT 31/16 A3008 RMK A01 T03070157  RH  040%=      5-min Rain = 0
KDC1 112101Z 05004KT 31/16 A3008 RMK A01 T03080155  RH  040%=      5-min Rain = 0
KDC1 112102Z 05006KT 31/16 A3008 RMK A01 T03090156  RH  040%=      5-min Rain = 0
KDC1 112103Z 06006KT 31/15 A3008 RMK A01 T03090154  RH  039%=      5-min Rain = 0
KDC1 112104Z 05006KT 31/15 A3007 RMK A01 T03080154  RH  039%=      5-min Rain = 0
KDC1 112105Z 06004KT 31/15 A3007 RMK A01 T03080153  RH  039%=      5-min Rain = 0
KDC1 112106Z 03005KT 31/15 A3007 RMK A01 T03070152  RH  039%=      5-min Rain = 0
KDC1 112107Z 02002KT 31/15 A3007 RMK A01 T03060152  RH  039%=      5-min Rain = 0
KDC1 112108Z 04004KT 31/15 A3007 RMK A01 T03060154  RH  040%=      5-min Rain = 0
KDC1 112109Z 02004KT 31/15 A3007 RMK A01 T03060153  RH  040%=      5-min Rain = 0
KDC1 112110Z 02004KT 31/15 A3007 RMK A01 T03060154  RH  040%=      5-min Rain = 0
KDC1 112111Z 02004KT 31/16 A3007 RMK A01 T03070156  RH  040%=      5-min Rain = 0
KDC1 112112Z 01004KT 31/16 A3007 RMK A01 T03080155  RH  040%=      5-min Rain = 0
KDC1 112113Z 04005KT 31/15 A3007 RMK A01 T03080154  RH  039%=      5-min Rain = 0
KDC1 112114Z 06003KT 31/15 A3007 RMK A01 T03070152  RH  039%=      5-min Rain = 0
KDC1 112115Z 04004KT 31/15 A3007 RMK A01 T03070154  RH  040%=      5-min Rain = 0
KDC1 112116Z 04004KT 31/15 A3007 RMK A01 T03070154  RH  039%=      5-min Rain = 0
KDC1 112117Z 02002KT 31/15 A3007 RMK A01 T03080154  RH  039%=      5-min Rain = 0
KDC1 112118Z 06003KT 31/16 A3007 RMK A01 T03090155  RH  039%=      5-min Rain = 0
KDC1 112119Z 06007KT 31/15 A3007 RMK A01 T03100152  RH  038%=      5-min Rain = 0
KDC1 112120Z 07005KT 31/15 A3007 RMK A01 T03100151  RH  038%=      5-min Rain = 0
KDC1 112121Z 06005KT 31/15 A3007 RMK A01 T03090150  RH  038%=      5-min Rain = 0
KDC1 112122Z 08005KT 31/15 A3007 RMK A01 T03080151  RH  038%=      5-min Rain = 0
KDC1 112123Z 09006KT 31/15 A3007 RMK A01 T03110149  RH  038%=      5-min Rain = 0
KDC1 112124Z 08005KT 31/15 A3007 RMK A01 T03120148  RH  037%=      5-min Rain = 0
KDC1 112125Z 07006KT 31/15 A3007 RMK A01 T03120150  RH  038%=      5-min Rain = 0
KDC1 112126Z 08004KT 31/15 A3007 RMK A01 T03110149  RH  037%=      5-min Rain = 0
KDC1 112127Z 07004KT 31/15 A3007 RMK A01 T03090147  RH  037%=      5-min Rain = 0
KDC1 112128Z 06004KT 31/15 A3007 RMK A01 T03080148  RH  038%=      5-min Rain = 0
KDC1 112129Z 06004KT 31/15 A3007 RMK A01 T03080148  RH  038%=      5-min Rain = 0
KDC1 112130Z 05003KT 31/15 A3007 RMK A01 T03080148  RH  038%=      5-min Rain = 0
KDC1 112131Z 05003KT 31/15 A3007 RMK A01 T03090148  RH  038%=      5-min Rain = 0
KDC1 112132Z 02004KT 31/15 A3007 RMK A01 T03100148  RH  037%=      5-min Rain = 0
KDC1 112133Z 03004KT 31/15 A3007 RMK A01 T03090149  RH  038%=      5-min Rain = 0
KDC1 112134Z 04003KT 31/15 A3007 RMK A01 T03090153  RH  039%=      5-min Rain = 0
KDC1 112135Z 02003KT 31/15 A3007 RMK A01 T03110146  RH  037%=      5-min Rain = 0
KDC1 112136Z 05004KT 31/15 A3007 RMK A01 T03110151  RH  038%=      5-min Rain = 0
KDC1 112137Z 07005KT 31/15 A3006 RMK A01 T03110150  RH  038%=      5-min Rain = 0
KDC1 112138Z 08005KT 31/15 A3006 RMK A01 T03110150  RH  038%=      5-min Rain = 0
KDC1 112139Z 11005KT 31/15 A3006 RMK A01 T03120148  RH  037%=      5-min Rain = 0
KDC1 112140Z 12004KT 31/15 A3006 RMK A01 T03110146  RH  037%=      5-min Rain = 0
KDC1 112141Z 13004KT 31/15 A3006 RMK A01 T03100148  RH  037%=      5-min Rain = 0
KDC1 112142Z 12002KT 31/15 A3006 RMK A01 T03090148  RH  038%=      5-min Rain = 0
KDC1 112143Z 10003KT 31/15 A3006 RMK A01 T03100152  RH  038%=      5-min Rain = 0
KDC1 112144Z 12003KT 31/15 A3006 RMK A01 T03120152  RH  038%=      5-min Rain = 0
KDC1 112145Z 13004KT 31/15 A3006 RMK A01 T03140151  RH  037%=      5-min Rain = 0
KDC1 112146Z 12003KT 31/15 A3006 RMK A01 T03140150  RH  037%=      5-min Rain = 0
KDC1 112147Z 10003KT 31/15 A3006 RMK A01 T03130149  RH  037%=      5-min Rain = 0
KDC1 112148Z 09007KT 31/15 A3006 RMK A01 T03130153  RH  038%=      5-min Rain = 0
KDC1 112149Z 09007KT 31/15 A3006 RMK A01 T03130152  RH  038%=      5-min Rain = 0
KDC1 112150Z 08007KT 31/15 A3006 RMK A01 T03130151  RH  038%=      5-min Rain = 0
KDC1 112151Z 09006KT 31/15 A3006 RMK A01 T03130153  RH  038%=      5-min Rain = 0
KDC1 112152Z 07006KT 31/15 A3005 RMK A01 T03110153  RH  039%=      5-min Rain = 0
KDC1 112153Z 07006KT 31/15 A3005 RMK A01 T03100154  RH  039%=      5-min Rain = 0
KDC1 112154Z 08006KT 31/15 A3005 RMK A01 T03100150  RH  038%=      5-min Rain = 0
KDC1 112155Z 06004KT 31/15 A3005 RMK A01 T03100152  RH  038%=      5-min Rain = 0
KDC1 112156Z 05004KT 31/15 A3005 RMK A01 T03110151  RH  038%=      5-min Rain = 0
KDC1 112157Z 06004KT 31/15 A3005 RMK A01 T03110150  RH  038%=      5-min Rain = 0
KDC1 112158Z 10006KT 31/15 A3005 RMK A01 T03110150  RH  038%=      5-min Rain = 0
KDC1 112159Z 13005KT 31/15 A3005 RMK A01 T03130149  RH  037%=      5-min Rain = 0
KDC1 112200Z 13006KT 31/15 A3005 RMK A01 T03140150  RH  037%=      5-min Rain = 0
KDC1 112201Z 12007KT 32/15 A3005 RMK A01 T03150149  RH  037%=      5-min Rain = 0
KDC1 112202Z 11007KT 32/15 A3005 RMK A01 T03150151  RH  037%=      5-min Rain = 0
KDC1 112203Z 13008KT 32/16 A3005 RMK A01 T03150155  RH  038%=      5-min Rain = 0
KDC1 112204Z 14008KT 32/16 A3005 RMK A01 T03150157  RH  038%=      5-min Rain = 0
KDC1 112205Z 14011KT 31/17 A3005 RMK A01 T03140170  RH  042%=      5-min Rain = 0
KDC1 112206Z 13011KT 31/16 A3006 RMK A01 T03110155  RH  039%=      5-min Rain = 0
KDC1 112207Z 14009KT 31/16 A3005 RMK A01 T03080156  RH  040%=      5-min Rain = 0
KDC1 112208Z 14008KT 31/16 A3005 RMK A01 T03070156  RH  040%=      5-min Rain = 0
KDC1 112209Z 16008KT 31/15 A3005 RMK A01 T03070154  RH  040%=      5-min Rain = 0
KDC1 112210Z 17007KT 31/15 A3005 RMK A01 T03070154  RH  040%=      5-min Rain = 0
KDC1 112211Z 16007KT 31/16 A3005 RMK A01 T03090155  RH  039%=      5-min Rain = 0
KDC1 112212Z 16009KT 31/15 A3005 RMK A01 T03100154  RH  039%=      5-min Rain = 0
KDC1 112213Z 19007KT 31/15 A3005 RMK A01 T03110153  RH  039%=      5-min Rain = 0
KDC1 112214Z 20006KT 31/15 A3005 RMK A01 T03110150  RH  038%=      5-min Rain = 0
KDC1 112215Z 20009KT 31/15 A3005 RMK A01 T03110148  RH  037%=      5-min Rain = 0
KDC1 112216Z 19009KT 31/15 A3005 RMK A01 T03100149  RH  038%=      5-min Rain = 0
KDC1 112217Z 18007G12KT 31/15 A3005 RMK A01 T03080150  RH  038%=      5-min Rain = 0
KDC1 112218Z 18005KT 31/15 A3005 RMK A01 T03090152  RH  039%=      5-min Rain = 0
KDC1 112219Z 20004KT 31/15 A3005 RMK A01 T03100151  RH  038%=      5-min Rain = 0
KDC1 112220Z 19007KT 31/15 A3005 RMK A01 T03110152  RH  038%=      5-min Rain = 0
KDC1 112221Z 19008KT 31/15 A3005 RMK A01 T03110151  RH  038%=      5-min Rain = 0
KDC1 112222Z 18009KT 31/15 A3005 RMK A01 T03110150  RH  038%=      5-min Rain = 0
KDC1 112223Z 17009KT 31/15 A3005 RMK A01 T03110150  RH  038%=      5-min Rain = 0
KDC1 112224Z 17007KT 31/15 A3005 RMK A01 T03110151  RH  038%=      5-min Rain = 0
KDC1 112225Z 17009KT 31/15 A3005 RMK A01 T03120153  RH  038%=      5-min Rain = 0
KDC1 112226Z 17008KT 31/15 A3005 RMK A01 T03120150  RH  037%=      5-min Rain = 0
KDC1 112227Z 18007KT 31/15 A3005 RMK A01 T03120148  RH  037%=      5-min Rain = 0
KDC1 112228Z 18006KT 31/15 A3005 RMK A01 T03110148  RH  037%=      5-min Rain = 0
KDC1 112229Z 16007KT 31/15 A3005 RMK A01 T03110151  RH  038%=      5-min Rain = 0
KDC1 112230Z 16005KT 31/15 A3005 RMK A01 T03110149  RH  037%=      5-min Rain = 0
KDC1 112231Z 15008KT 31/15 A3005 RMK A01 T03120154  RH  038%=      5-min Rain = 0
KDC1 112232Z 15007KT 31/15 A3005 RMK A01 T03120154  RH  039%=      5-min Rain = 0
KDC1 112233Z 16007KT 31/15 A3005 RMK A01 T03110154  RH  039%=      5-min Rain = 0
KDC1 112234Z 17006KT 31/15 A3005 RMK A01 T03110153  RH  038%=      5-min Rain = 0
KDC1 112235Z 18006KT 31/15 A3005 RMK A01 T03120154  RH  038%=      5-min Rain = 0
KDC1 112236Z 18009G14KT 31/15 A3006 RMK A01 T03130152  RH  038%=      5-min Rain = 0
KDC1 112237Z 19009KT 31/15 A3006 RMK A01 T03120149  RH  037%=      5-min Rain = 0
KDC1 112238Z 19008KT 31/15 A3006 RMK A01 T03110148  RH  037%=      5-min Rain = 0
KDC1 112239Z 18008KT 31/15 A3006 RMK A01 T03100149  RH  038%=      5-min Rain = 0
KDC1 112240Z 18007KT 31/15 A3006 RMK A01 T03100150  RH  038%=      5-min Rain = 0
KDC1 112241Z 18008G13KT 31/15 A3006 RMK A01 T03100148  RH  038%=      5-min Rain = 0
KDC1 112242Z 18010KT 31/15 A3006 RMK A01 T03090147  RH  037%=      5-min Rain = 0
KDC1 112243Z 19006KT 31/15 A3006 RMK A01 T03080148  RH  038%=      5-min Rain = 0
KDC1 112244Z 19007KT 31/15 A3006 RMK A01 T03080149  RH  038%=      5-min Rain = 0
KDC1 112245Z 19007KT 31/15 A3006 RMK A01 T03090149  RH  038%=      5-min Rain = 0
KDC1 112246Z 20010KT 31/15 A3006 RMK A01 T03080146  RH  037%=      5-min Rain = 0
KDC1 112247Z 19008KT 31/15 A3006 RMK A01 T03060145  RH  038%=      5-min Rain = 0
KDC1 112248Z 19010KT 31/15 A3006 RMK A01 T03060145  RH  038%=      5-min Rain = 0
KDC1 112249Z 20008KT 31/14 A3006 RMK A01 T03060143  RH  037%=      5-min Rain = 0
KDC1 112250Z 20006KT 31/14 A3006 RMK A01 T03050143  RH  037%=      5-min Rain = 0
KDC1 112251Z 20006KT 30/14 A3006 RMK A01 T03040143  RH  037%=      5-min Rain = 0
KDC1 112252Z 20006KT 31/14 A3006 RMK A01 T03050144  RH  038%=      5-min Rain = 0
KDC1 112253Z 20008KT 31/14 A3006 RMK A01 T03050142  RH  037%=      5-min Rain = 0
KDC1 112254Z 20006KT 31/14 A3005 RMK A01 T03050142  RH  037%=      5-min Rain = 0
KDC1 112255Z 19007KT 31/14 A3005 RMK A01 T03050141  RH  037%=      5-min Rain = 0
KDC1 112256Z 21006KT 31/14 A3005 RMK A01 T03050141  RH  037%=      5-min Rain = 0
KDC1 112257Z 23004KT 31/14 A3006 RMK A01 T03050144  RH  038%=      5-min Rain = 0
KDC1 112258Z 24007KT 30/16 A3005 RMK A01 T03020161  RH  043%=      5-min Rain = 0
KDC1 112259Z 24009KT 29/16 A3005 RMK A01 T02930163  RH  045%=      5-min Rain = 0
KDC1 112300Z 22007KT 29/16 A3006 RMK A01 T02860160  RH  046%=      5-min Rain = 0
KDC1 112301Z 22006KT 28/16 A3005 RMK A01 T02820160  RH  047%=      5-min Rain = 0
KDC1 112302Z 23007KT 28/16 A3005 RMK A01 T02810161  RH  048%=      5-min Rain = 0
KDC1 112303Z 22006KT 28/16 A3005 RMK A01 T02800161  RH  048%=      5-min Rain = 0
KDC1 112304Z 22006KT 28/16 A3005 RMK A01 T02800160  RH  048%=      5-min Rain = 0
KDC1 112305Z 21004KT 28/16 A3005 RMK A01 T02800161  RH  048%=      5-min Rain = 0
KDC1 112306Z 22005KT 28/16 A3005 RMK A01 T02800162  RH  049%=      5-min Rain = 0
KDC1 112307Z 24004KT 28/17 A3005 RMK A01 T02800166  RH  050%=      5-min Rain = 0
KDC1 112308Z 24005KT 28/17 A3005 RMK A01 T02790169  RH  051%=      5-min Rain = 0
KDC1 112309Z 24009KT 28/17 A3005 RMK A01 T02780166  RH  051%=      5-min Rain = 0
KDC1 112310Z 25009KT 28/16 A3005 RMK A01 T02770164  RH  050%=      5-min Rain = 0
KDC1 112311Z 24009KT 28/17 A3005 RMK A01 T02770167  RH  051%=      5-min Rain = 0
KDC1 112312Z 25008KT 28/17 A3005 RMK A01 T02770168  RH  052%=      5-min Rain = 0
KDC1 112313Z 24008KT 28/17 A3005 RMK A01 T02760166  RH  051%=      5-min Rain = 0
KDC1 112314Z 24005KT 28/17 A3005 RMK A01 T02760167  RH  052%=      5-min Rain = 0
KDC1 112315Z 24006KT 28/17 A3005 RMK A01 T02760167  RH  051%=      5-min Rain = 0
KDC1 112316Z 24008KT 28/17 A3005 RMK A01 T02760165  RH  051%=      5-min Rain = 0
KDC1 112317Z 24009KT 28/16 A3005 RMK A01 T02750163  RH  050%=      5-min Rain = 0
KDC1 112318Z 24009KT 28/16 A3005 RMK A01 T02750163  RH  050%=      5-min Rain = 0
KDC1 112319Z 24011KT 27/16 A3005 RMK A01 T02740163  RH  051%=      5-min Rain = 0
KDC1 112320Z 24009KT 27/16 A3005 RMK A01 T02740159  RH  049%=      5-min Rain = 0
KDC1 112321Z 24008KT 28/16 A3005 RMK A01 T02750160  RH  050%=      5-min Rain = 0
KDC1 112322Z 24008KT 28/16 A3006 RMK A01 T02750161  RH  050%=      5-min Rain = 0
KDC1 112323Z 24008KT 28/16 A3006 RMK A01 T02750162  RH  050%=      5-min Rain = 0
KDC1 112324Z 24008KT 27/16 A3006 RMK A01 T02740162  RH  051%=      5-min Rain = 0
KDC1 112325Z 24008KT 27/16 A3006 RMK A01 T02730164  RH  051%=      5-min Rain = 0
KDC1 112326Z 24007KT 27/16 A3006 RMK A01 T02720164  RH  052%=      5-min Rain = 0
KDC1 112327Z 24009KT 27/17 A3006 RMK A01 T02710166  RH  053%=      5-min Rain = 0
KDC1 112328Z 23008KT 27/17 A3006 RMK A01 T02690166  RH  053%=      5-min Rain = 0
KDC1 112329Z 24006KT 27/17 A3006 RMK A01 T02670168  RH  055%=      5-min Rain = 0
KDC1 112330Z 24007KT 27/17 A3006 RMK A01 T02660169  RH  055%=      5-min Rain = 0
KDC1 112331Z 24007KT 27/17 A3006 RMK A01 T02650171  RH  056%=      5-min Rain = 0
KDC1 112332Z 24008KT 26/17 A3005 RMK A01 T02630171  RH  057%=      5-min Rain = 0
KDC1 112333Z 24008KT 26/17 A3005 RMK A01 T02620171  RH  057%=      5-min Rain = 0
KDC1 112334Z 25009KT 26/17 A3005 RMK A01 T02610173  RH  058%=      5-min Rain = 0
KDC1 112335Z 24008KT 26/18 A3005 RMK A01 T02600176  RH  060%=      5-min Rain = 0
KDC1 112336Z 25008KT 26/18 A3005 RMK A01 T02590176  RH  060%=      5-min Rain = 0
KDC1 112337Z 24008KT 26/18 A3005 RMK A01 T02580178  RH  061%=      5-min Rain = 0
KDC1 112338Z 25008KT 26/18 A3005 RMK A01 T02580180  RH  062%=      5-min Rain = 0
KDC1 112339Z 24008KT 26/18 A3005 RMK A01 T02570181  RH  063%=      5-min Rain = 0
KDC1 112340Z 24007KT 26/18 A3005 RMK A01 T02570181  RH  063%=      5-min Rain = 0
KDC1 112341Z 23008KT 26/18 A3005 RMK A01 T02570181  RH  063%=      5-min Rain = 0
KDC1 112342Z 24008KT 26/18 A3005 RMK A01 T02560180  RH  063%=      5-min Rain = 0
KDC1 112343Z 25007KT 26/18 A3005 RMK A01 T02560181  RH  063%=      5-min Rain = 0
KDC1 112344Z 25007KT 26/18 A3005 RMK A01 T02560183  RH  064%=      5-min Rain = 0
KDC1 112345Z 25010KT 26/18 A3005 RMK A01 T02560181  RH  063%=      5-min Rain = 0
KDC1 112346Z 25009KT 26/18 A3005 RMK A01 T02560181  RH  063%=      5-min Rain = 0
KDC1 112347Z 25008KT 26/18 A3005 RMK A01 T02550182  RH  064%=      5-min Rain = 0
KDC1 112348Z 25008KT 25/18 A3005 RMK A01 T02540183  RH  065%=      5-min Rain = 0
KDC1 112349Z 24005KT 25/19 A3005 RMK A01 T02540186  RH  066%=      5-min Rain = 0
KDC1 112350Z 25006KT 25/19 A3005 RMK A01 T02540191  RH  068%=      5-min Rain = 0
KDC1 112351Z 25006KT 25/19 A3005 RMK A01 T02540190  RH  068%=      5-min Rain = 0
KDC1 112352Z 25006KT 25/19 A3005 RMK A01 T02530190  RH  068%=      5-min Rain = 0
KDC1 112353Z 25006KT 25/19 A3005 RMK A01 T02540191  RH  068%=      5-min Rain = 0
KDC1 112354Z 25005KT 25/19 A3005 RMK A01 T02530193  RH  069%=      5-min Rain = 0
KDC1 112355Z 25007KT 25/19 A3005 RMK A01 T02530190  RH  068%=      5-min Rain = 0
KDC1 112356Z 25007KT 25/19 A3005 RMK A01 T02530188  RH  067%=      5-min Rain = 0
KDC1 112357Z 25007KT 25/19 A3005 RMK A01 T02530186  RH  066%=      5-min Rain = 0
KDC1 112358Z 25006KT 25/19 A3005 RMK A01 T02530187  RH  067%=      5-min Rain = 0
KDC1 112359Z 25007KT 25/19 A3005 RMK A01 T02530187  RH  067%=      5-min Rain = 0
KDC1 120000Z 25007KT 25/19 A3005 RMK A01 T02530185  RH  066%=      5-min Rain = 0
KDC1 120001Z 25006KT 25/19 A3005 RMK A01 T02530187  RH  067%=      5-min Rain = 0
KDC1 120002Z 25006KT 25/19 A3005 RMK A01 T02540186  RH  066%=      5-min Rain = 0
KDC1 120003Z 25006KT 25/18 A3005 RMK A01 T02540184  RH  065%=      5-min Rain = 0
KDC1 120004Z 25005KT 25/18 A3005 RMK A01 T02540184  RH  065%=      5-min Rain = 0
KDC1 120005Z 25005KT 26/18 A3005 RMK A01 T02550184  RH  065%=      5-min Rain = 0
KDC1 120006Z 25005KT 26/19 A3005 RMK A01 T02550185  RH  065%=      5-min Rain = 0
KDC1 120007Z 25006KT 26/19 A3005 RMK A01 T02550185  RH  065%=      5-min Rain = 0
KDC1 120008Z 25005KT 26/19 A3005 RMK A01 T02550186  RH  066%=      5-min Rain = 0
KDC1 120009Z 25005KT 26/19 A3005 RMK A01 T02550185  RH  065%=      5-min Rain = 0
KDC1 120010Z 24006KT 26/18 A3005 RMK A01 T02550184  RH  065%=      5-min Rain = 0
KDC1 120011Z 25005KT 25/19 A3005 RMK A01 T02540185  RH  065%=      5-min Rain = 0
KDC1 120012Z 25004KT 26/19 A3005 RMK A01 T02550186  RH  066%=      5-min Rain = 0
KDC1 120013Z 24003KT 26/19 A3005 RMK A01 T02550190  RH  067%=      5-min Rain = 0
KDC1 120014Z 24004KT 26/19 A3005 RMK A01 T02550187  RH  066%=      5-min Rain = 0
KDC1 120015Z 24004KT 26/19 A3006 RMK A01 T02550188  RH  066%=      5-min Rain = 0
KDC1 120016Z 24004KT 26/19 A3006 RMK A01 T02550190  RH  067%=      5-min Rain = 0
KDC1 120017Z 24004KT 26/19 A3006 RMK A01 T02550191  RH  068%=      5-min Rain = 0
KDC1 120018Z 24004KT 26/19 A3006 RMK A01 T02550192  RH  068%=      5-min Rain = 0
KDC1 120019Z 24004KT 26/19 A3006 RMK A01 T02550191  RH  068%=      5-min Rain = 0
KDC1 120020Z 24003KT 26/19 A3006 RMK A01 T02550190  RH  067%=      5-min Rain = 0
KDC1 120021Z 24005KT 26/19 A3006 RMK A01 T02550189  RH  067%=      5-min Rain = 0
KDC1 120022Z 25006KT 26/18 A3006 RMK A01 T02560179  RH  063%=      5-min Rain = 0
KDC1 120023Z 25007KT 26/18 A3006 RMK A01 T02570175  RH  061%=      5-min Rain = 0
KDC1 120024Z 25005KT 26/17 A3006 RMK A01 T02580174  RH  060%=      5-min Rain = 0
KDC1 120025Z 24006KT 26/17 A3006 RMK A01 T02590170  RH  058%=      5-min Rain = 0
KDC1 120026Z 24006KT 26/17 A3006 RMK A01 T02590169  RH  058%=      5-min Rain = 0
KDC1 120027Z 24007KT 26/17 A3006 RMK A01 T02590167  RH  057%=      5-min Rain = 0
KDC1 120028Z 24005KT 26/16 A3006 RMK A01 T02590160  RH  054%=      5-min Rain = 0
KDC1 120029Z 23004KT 26/16 A3006 RMK A01 T02600157  RH  053%=      5-min Rain = 0
KDC1 120030Z 23004KT 26/16 A3006 RMK A01 T02600160  RH  054%=      5-min Rain = 0
KDC1 120031Z 23005KT 26/16 A3006 RMK A01 T02610161  RH  054%=      5-min Rain = 0
KDC1 120032Z 22002KT 26/16 A3006 RMK A01 T02610163  RH  055%=      5-min Rain = 0
KDC1 120033Z 22003KT 26/16 A3006 RMK A01 T02600164  RH  055%=      5-min Rain = 0
KDC1 120034Z 21002KT 26/16 A3006 RMK A01 T02600163  RH  055%=      5-min Rain = 0
KDC1 120035Z 22003KT 26/16 A3006 RMK A01 T02600164  RH  055%=      5-min Rain = 0
KDC1 120036Z 22003KT 26/16 A3006 RMK A01 T02600163  RH  055%=      5-min Rain = 0
KDC1 120037Z 21003KT 26/16 A3006 RMK A01 T02600162  RH  055%=      5-min Rain = 0
KDC1 120038Z 20003KT 26/16 A3006 RMK A01 T02600160  RH  054%=      5-min Rain = 0
KDC1 120039Z 19002KT 26/16 A3006 RMK A01 T02600160  RH  054%=      5-min Rain = 0
KDC1 120040Z 20002KT 26/16 A3006 RMK A01 T02610159  RH  053%=      5-min Rain = 0
KDC1 120041Z 20002KT 26/16 A3006 RMK A01 T02610158  RH  053%=      5-min Rain = 0
KDC1 120042Z 18002KT 26/16 A3006 RMK A01 T02620155  RH  052%=      5-min Rain = 0
KDC1 120043Z 17002KT 26/16 A3006 RMK A01 T02630156  RH  052%=      5-min Rain = 0
KDC1 120044Z 16003KT 26/16 A3006 RMK A01 T02630162  RH  054%=      5-min Rain = 0
KDC1 120045Z 13002KT 26/16 A3006 RMK A01 T02640164  RH  054%=      5-min Rain = 0
KDC1 120046Z 14002KT 26/16 A3007 RMK A01 T02640164  RH  054%=      5-min Rain = 0
KDC1 120047Z 12004KT 26/17 A3007 RMK A01 T02630167  RH  055%=      5-min Rain = 0
KDC1 120048Z 13004KT 26/17 A3007 RMK A01 T02620173  RH  058%=      5-min Rain = 0
KDC1 120049Z 14004KT 26/18 A3007 RMK A01 T02610176  RH  060%=      5-min Rain = 0
KDC1 120050Z 14004KT 26/18 A3007 RMK A01 T02590178  RH  061%=      5-min Rain = 0
KDC1 120051Z 15003KT 26/18 A3007 RMK A01 T02580179  RH  062%=      5-min Rain = 0
KDC1 120052Z 15004KT 26/18 A3007 RMK A01 T02570179  RH  062%=      5-min Rain = 0
KDC1 120053Z 16004KT 26/18 A3007 RMK A01 T02560178  RH  062%=      5-min Rain = 0
KDC1 120054Z 16003KT 26/18 A3007 RMK A01 T02560177  RH  061%=      5-min Rain = 0
KDC1 120055Z 16004KT 26/18 A3007 RMK A01 T02560176  RH  061%=      5-min Rain = 0
KDC1 120056Z 16003KT 26/17 A3007 RMK A01 T02570172  RH  060%=      5-min Rain = 0
KDC1 120057Z 16004KT 26/17 A3006 RMK A01 T02580174  RH  060%=      5-min Rain = 0
KDC1 120058Z 16003KT 26/17 A3006 RMK A01 T02590169  RH  058%=      5-min Rain = 0
KDC1 120059Z 17002KT 26/17 A3006 RMK A01 T02600168  RH  057%=      5-min Rain = 0
KDC1 120100Z 17003KT 26/17 A3006 RMK A01 T02610170  RH  057%=      5-min Rain = 0
KDC1 120101Z 16004KT 26/17 A3006 RMK A01 T02620167  RH  056%=      5-min Rain = 0
KDC1 120102Z 15004KT 26/16 A3006 RMK A01 T02630160  RH  053%=      5-min Rain = 0
KDC1 120103Z 15004KT 26/17 A3006 RMK A01 T02640166  RH  055%=      5-min Rain = 0
KDC1 120104Z 15004KT 27/16 A3006 RMK A01 T02650163  RH  053%=      5-min Rain = 0
KDC1 120105Z 16004KT 27/16 A3006 RMK A01 T02650162  RH  053%=      5-min Rain = 0
KDC1 120106Z 16003KT 27/16 A3006 RMK A01 T02660162  RH  053%=      5-min Rain = 0
KDC1 120107Z 15003KT 27/16 A3006 RMK A01 T02660164  RH  054%=      5-min Rain = 0
KDC1 120108Z 15003KT 27/17 A3006 RMK A01 T02660169  RH  055%=      5-min Rain = 0
KDC1 120109Z 16003KT 27/17 A3006 RMK A01 T02650171  RH  056%=      5-min Rain = 0
KDC1 120110Z 16003KT 27/17 A3006 RMK A01 T02650170  RH  056%=      5-min Rain = 0
KDC1 120111Z 16003KT 26/17 A3006 RMK A01 T02640168  RH  055%=      5-min Rain = 0
KDC1 120112Z 16003KT 26/17 A3006 RMK A01 T02640167  RH  055%=      5-min Rain = 0
KDC1 120113Z 16003KT 26/17 A3006 RMK A01 T02640169  RH  056%=      5-min Rain = 0
KDC1 120114Z 16003KT 26/17 A3006 RMK A01 T02640169  RH  056%=      5-min Rain = 0
KDC1 120115Z 16003KT 26/17 A3006 RMK A01 T02640169  RH  056%=      5-min Rain = 0
KDC1 120116Z 15003KT 26/17 A3006 RMK A01 T02640169  RH  056%=      5-min Rain = 0
KDC1 120117Z 15003KT 26/17 A3006 RMK A01 T02640169  RH  056%=      5-min Rain = 0
KDC1 120118Z 15003KT 26/17 A3006 RMK A01 T02640170  RH  056%=      5-min Rain = 0
KDC1 120119Z 15003KT 26/17 A3006 RMK A01 T02640171  RH  057%=      5-min Rain = 0
KDC1 120120Z 15003KT 26/17 A3006 RMK A01 T02630170  RH  056%=      5-min Rain = 0
KDC1 120121Z 16002KT 26/17 A3006 RMK A01 T02630171  RH  057%=      5-min Rain = 0
KDC1 120122Z 15002KT 26/17 A3007 RMK A01 T02630174  RH  058%=      5-min Rain = 0
KDC1 120123Z 15001KT 26/17 A3007 RMK A01 T02620173  RH  058%=      5-min Rain = 0
KDC1 120124Z 14001KT 26/17 A3007 RMK A01 T02620171  RH  058%=      5-min Rain = 0
KDC1 120125Z 13001KT 26/17 A3007 RMK A01 T02620169  RH  057%=      5-min Rain = 0
KDC1 120126Z 13000KT 26/17 A3007 RMK A01 T02610166  RH  056%=      5-min Rain = 0
KDC1 120127Z 00000KT 26/16 A3007 RMK A01 T02620164  RH  055%=      5-min Rain = 0
KDC1 120128Z 00000KT 26/17 A3007 RMK A01 T02620165  RH  055%=      5-min Rain = 0
KDC1 120129Z 00000KT 26/17 A3007 RMK A01 T02620169  RH  056%=      5-min Rain = 0
KDC1 120130Z 00000KT 26/18 A3007 RMK A01 T02620181  RH  061%=      5-min Rain = 0
KDC1 120131Z 00001KT 26/18 A3007 RMK A01 T02610182  RH  062%=      5-min Rain = 0
KDC1 120132Z 00002KT 26/18 A3007 RMK A01 T02590181  RH  062%=      5-min Rain = 0
KDC1 120133Z 01002KT 26/18 A3007 RMK A01 T02590180  RH  062%=      5-min Rain = 0
KDC1 120134Z 00002KT 26/18 A3007 RMK A01 T02580181  RH  063%=      5-min Rain = 0
KDC1 120135Z 35002KT 26/18 A3007 RMK A01 T02570181  RH  063%=      5-min Rain = 0
KDC1 120136Z 35002KT 26/18 A3007 RMK A01 T02570182  RH  063%=      5-min Rain = 0
KDC1 120137Z 35003KT 26/18 A3007 RMK A01 T02560184  RH  065%=      5-min Rain = 0
KDC1 120138Z 34003KT 26/19 A3007 RMK A01 T02560185  RH  065%=      5-min Rain = 0
KDC1 120139Z 34003KT 25/20 A3007 RMK A01 T02540195  RH  070%=      5-min Rain = 0
KDC1 120140Z 35003KT 25/20 A3007 RMK A01 T02510196  RH  071%=      5-min Rain = 0
KDC1 120141Z 35003KT 25/20 A3007 RMK A01 T02490196  RH  072%=      5-min Rain = 0
KDC1 120142Z 35003KT 25/20 A3007 RMK A01 T02480196  RH  073%=      5-min Rain = 0
KDC1 120143Z 35003KT 25/20 A3007 RMK A01 T02470195  RH  073%=      5-min Rain = 0
KDC1 120144Z 35003KT 25/19 A3007 RMK A01 T02470194  RH  072%=      5-min Rain = 0
KDC1 120145Z 35003KT 25/20 A3007 RMK A01 T02470195  RH  073%=      5-min Rain = 0
KDC1 120146Z 35003KT 25/20 A3007 RMK A01 T02470195  RH  073%=      5-min Rain = 0
KDC1 120147Z 35003KT 25/20 A3007 RMK A01 T02470195  RH  073%=      5-min Rain = 0
KDC1 120148Z 35003KT 25/20 A3007 RMK A01 T02460195  RH  073%=      5-min Rain = 0
KDC1 120149Z 35003KT 25/20 A3007 RMK A01 T02460196  RH  073%=      5-min Rain = 0
KDC1 120150Z 35004KT 25/20 A3007 RMK A01 T02460195  RH  073%=      5-min Rain = 0
KDC1 120151Z 35004KT 25/19 A3008 RMK A01 T02470191  RH  071%=      5-min Rain = 0
KDC1 120152Z 35004KT 25/19 A3008 RMK A01 T02470190  RH  070%=      5-min Rain = 0
KDC1 120153Z 35004KT 25/19 A3008 RMK A01 T02480190  RH  070%=      5-min Rain = 0
KDC1 120154Z 35005KT 25/19 A3008 RMK A01 T02480187  RH  069%=      5-min Rain = 0
KDC1 120155Z 35005KT 25/18 A3008 RMK A01 T02490183  RH  067%=      5-min Rain = 0
KDC1 120156Z 36006KT 25/18 A3008 RMK A01 T02500179  RH  065%=      5-min Rain = 0
KDC1 120157Z 36005KT 25/18 A3008 RMK A01 T02520177  RH  063%=      5-min Rain = 0
KDC1 120158Z 00005KT 25/18 A3008 RMK A01 T02540179  RH  063%=      5-min Rain = 0
KDC1 120159Z 00006KT 25/18 A3008 RMK A01 T02540179  RH  063%=      5-min Rain = 0
KDC1 120200Z 36005KT 25/18 A3008 RMK A01 T02540178  RH  062%=      5-min Rain = 0
KDC1 120201Z 00005KT 26/18 A3008 RMK A01 T02550176  RH  062%=      5-min Rain = 0
KDC1 120202Z 36005KT 26/18 A3008 RMK A01 T02550175  RH  061%=      5-min Rain = 0
KDC1 120203Z 01005KT 26/18 A3008 RMK A01 T02550175  RH  061%=      5-min Rain = 0
KDC1 120204Z 00005KT 26/18 A3008 RMK A01 T02550175  RH  061%=      5-min Rain = 0
KDC1 120205Z 36006KT 25/17 A3008 RMK A01 T02540174  RH  061%=      5-min Rain = 0
KDC1 120206Z 35007KT 25/17 A3008 RMK A01 T02540171  RH  060%=      5-min Rain = 0
KDC1 120207Z 36006KT 25/17 A3008 RMK A01 T02540170  RH  060%=      5-min Rain = 0
KDC1 120208Z 00005KT 25/17 A3008 RMK A01 T02540171  RH  060%=      5-min Rain = 0
KDC1 120209Z 00004KT 25/17 A3008 RMK A01 T02540171  RH  060%=      5-min Rain = 0
KDC1 120210Z 35004KT 25/17 A3008 RMK A01 T02540173  RH  061%=      5-min Rain = 0
KDC1 120211Z 35005KT 25/17 A3008 RMK A01 T02530174  RH  062%=      5-min Rain = 0
KDC1 120212Z 34006KT 25/17 A3008 RMK A01 T02530171  RH  060%=      5-min Rain = 0
KDC1 120213Z 34005KT 25/17 A3008 RMK A01 T02530166  RH  058%=      5-min Rain = 0
KDC1 120214Z 34005KT 26/17 A3008 RMK A01 T02550165  RH  057%=      5-min Rain = 0
KDC1 120215Z 34004KT 26/17 A3008 RMK A01 T02570166  RH  057%=      5-min Rain = 0
KDC1 120216Z 34004KT 26/17 A3008 RMK A01 T02570167  RH  057%=      5-min Rain = 0
KDC1 120217Z 34004KT 26/17 A3008 RMK A01 T02570169  RH  058%=      5-min Rain = 0
KDC1 120218Z 34005KT 26/17 A3008 RMK A01 T02570171  RH  059%=      5-min Rain = 0
KDC1 120219Z 34004KT 26/17 A3008 RMK A01 T02560172  RH  060%=      5-min Rain = 0
KDC1 120220Z 34004KT 26/17 A3008 RMK A01 T02550171  RH  060%=      5-min Rain = 0
KDC1 120221Z 33004KT 25/17 A3008 RMK A01 T02540169  RH  059%=      5-min Rain = 0
KDC1 120222Z 33005KT 25/17 A3008 RMK A01 T02540168  RH  059%=      5-min Rain = 0
KDC1 120223Z 33006KT 25/16 A3008 RMK A01 T02540164  RH  057%=      5-min Rain = 0
KDC1 120224Z 33006KT 25/16 A3008 RMK A01 T02540162  RH  057%=      5-min Rain = 0
KDC1 120225Z 33006KT 25/16 A3008 RMK A01 T02540163  RH  057%=      5-min Rain = 0
KDC1 120226Z 33006KT 25/16 A3008 RMK A01 T02520164  RH  058%=      5-min Rain = 0
KDC1 120227Z 33006KT 25/16 A3008 RMK A01 T02510164  RH  059%=      5-min Rain = 0
KDC1 120228Z 33006KT 25/17 A3008 RMK A01 T02500165  RH  059%=      5-min Rain = 0
KDC1 120229Z 33007KT 25/17 A3008 RMK A01 T02480165  RH  060%=      5-min Rain = 0
KDC1 120230Z 34007KT 25/17 A3008 RMK A01 T02470165  RH  060%=      5-min Rain = 0
KDC1 120231Z 34007KT 25/17 A3008 RMK A01 T02470165  RH  060%=      5-min Rain = 0
KDC1 120232Z 34007KT 25/16 A3008 RMK A01 T02460164  RH  060%=      5-min Rain = 0
KDC1 120233Z 34007KT 25/16 A3008 RMK A01 T02460163  RH  060%=      5-min Rain = 0
KDC1 120234Z 35005KT 25/16 A3008 RMK A01 T02460163  RH  060%=      5-min Rain = 0
KDC1 120235Z 35004KT 25/17 A3008 RMK A01 T02460165  RH  060%=      5-min Rain = 0
KDC1 120236Z 35004KT 25/17 A3008 RMK A01 T02460166  RH  061%=      5-min Rain = 0
KDC1 120237Z 35004KT 25/17 A3008 RMK A01 T02460165  RH  061%=      5-min Rain = 0
KDC1 120238Z 34004KT 25/17 A3008 RMK A01 T02460165  RH  061%=      5-min Rain = 0
KDC1 120239Z 34004KT 25/16 A3008 RMK A01 T02460164  RH  060%=      5-min Rain = 0
KDC1 120240Z 34004KT 25/17 A3008 RMK A01 T02460165  RH  061%=      5-min Rain = 0
KDC1 120241Z 34004KT 25/17 A3008 RMK A01 T02460165  RH  061%=      5-min Rain = 0
KDC1 120242Z 34004KT 25/17 A3008 RMK A01 T02450166  RH  061%=      5-min Rain = 0
KDC1 120243Z 34004KT 25/17 A3008 RMK A01 T02450167  RH  062%=      5-min Rain = 0
KDC1 120244Z 34004KT 24/17 A3008 RMK A01 T02440167  RH  062%=      5-min Rain = 0
KDC1 120245Z 35004KT 24/17 A3008 RMK A01 T02430168  RH  063%=      5-min Rain = 0
KDC1 120246Z 35005KT 24/17 A3008 RMK A01 T02420168  RH  063%=      5-min Rain = 0
KDC1 120247Z 35005KT 24/17 A3008 RMK A01 T02410166  RH  063%=      5-min Rain = 0
KDC1 120248Z 35005KT 24/17 A3008 RMK A01 T02410166  RH  063%=      5-min Rain = 0
KDC1 120249Z 35005KT 24/17 A3008 RMK A01 T02410165  RH  062%=      5-min Rain = 0
KDC1 120250Z 35004KT 24/17 A3008 RMK A01 T02420165  RH  062%=      5-min Rain = 0
KDC1 120251Z 35004KT 24/17 A3008 RMK A01 T02420165  RH  062%=      5-min Rain = 0
KDC1 120252Z 35004KT 24/17 A3009 RMK A01 T02420165  RH  062%=      5-min Rain = 0
KDC1 120253Z 34004KT 24/17 A3009 RMK A01 T02420165  RH  062%=      5-min Rain = 0
KDC1 120254Z 34003KT 24/17 A3009 RMK A01 T02420165  RH  062%=      5-min Rain = 0
KDC1 120255Z 34004KT 24/17 A3009 RMK A01 T02420165  RH  062%=      5-min Rain = 0
KDC1 120256Z 34004KT 24/16 A3009 RMK A01 T02430164  RH  061%=      5-min Rain = 0
KDC1 120257Z 34004KT 24/17 A3009 RMK A01 T02430165  RH  062%=      5-min Rain = 0
KDC1 120258Z 34004KT 24/17 A3009 RMK A01 T02420165  RH  062%=      5-min Rain = 0
KDC1 120259Z 34004KT 24/17 A3009 RMK A01 T02420165  RH  062%=      5-min Rain = 0
KDC1 120300Z 34004KT 24/17 A3009 RMK A01 T02420165  RH  062%=      5-min Rain = 0
KDC1 120301Z 34004KT 24/17 A3009 RMK A01 T02420166  RH  062%=      5-min Rain = 0
KDC1 120302Z 35004KT 24/17 A3009 RMK A01 T02410166  RH  063%=      5-min Rain = 0
KDC1 120303Z 34004KT 24/17 A3009 RMK A01 T02400166  RH  063%=      5-min Rain = 0
KDC1 120304Z 34004KT 24/17 A3009 RMK A01 T02400167  RH  063%=      5-min Rain = 0
KDC1 120305Z 35004KT 24/17 A3009 RMK A01 T02390166  RH  064%=      5-min Rain = 0
KDC1 120306Z 35004KT 24/17 A3009 RMK A01 T02390167  RH  064%=      5-min Rain = 0
KDC1 120307Z 34004KT 24/17 A3009 RMK A01 T02390167  RH  064%=      5-min Rain = 0
KDC1 120308Z 34005KT 24/17 A3009 RMK A01 T02390168  RH  064%=      5-min Rain = 0
KDC1 120309Z 34004KT 24/17 A3009 RMK A01 T02390167  RH  064%=      5-min Rain = 0
KDC1 120310Z 34004KT 24/17 A3009 RMK A01 T02390167  RH  064%=      5-min Rain = 0
KDC1 120311Z 34005KT 24/17 A3009 RMK A01 T02380169  RH  065%=      5-min Rain = 0
KDC1 120312Z 33004KT 24/17 A3009 RMK A01 T02380169  RH  065%=      5-min Rain = 0
KDC1 120313Z 33004KT 24/17 A3009 RMK A01 T02370169  RH  066%=      5-min Rain = 0
KDC1 120314Z 33004KT 24/17 A3009 RMK A01 T02370170  RH  066%=      5-min Rain = 0
KDC1 120315Z 33004KT 24/17 A3009 RMK A01 T02360171  RH  067%=      5-min Rain = 0
KDC1 120316Z 33004KT 24/17 A301 RMK A01 T02360171  RH  067%=      5-min Rain = 0
KDC1 120317Z 33004KT 24/17 A301 RMK A01 T02350171  RH  067%=      5-min Rain = 0
KDC1 120318Z 33004KT 24/17 A301 RMK A01 T02350170  RH  067%=      5-min Rain = 0
KDC1 120319Z 32004KT 24/17 A301 RMK A01 T02350171  RH  067%=      5-min Rain = 0
KDC1 120320Z 32005KT 24/17 A301 RMK A01 T02350171  RH  067%=      5-min Rain = 0
KDC1 120321Z 32005KT 24/17 A301 RMK A01 T02350169  RH  066%=      5-min Rain = 0
KDC1 120322Z 32005KT 24/17 A301 RMK A01 T02350172  RH  068%=      5-min Rain = 0
KDC1 120323Z 32005KT 23/17 A301 RMK A01 T02340172  RH  068%=      5-min Rain = 0
KDC1 120324Z 32005KT 23/17 A301 RMK A01 T02330172  RH  069%=      5-min Rain = 0
KDC1 120325Z 31005KT 23/17 A301 RMK A01 T02320172  RH  069%=      5-min Rain = 0
KDC1 120326Z 31006KT 23/17 A301 RMK A01 T02310172  RH  069%=      5-min Rain = 0
KDC1 120327Z 31006KT 23/17 A301 RMK A01 T02310173  RH  070%=      5-min Rain = 0
KDC1 120328Z 31007KT 23/17 A301 RMK A01 T02300172  RH  070%=      5-min Rain = 0
KDC1 120329Z 32007KT 23/17 A301 RMK A01 T02290170  RH  069%=      5-min Rain = 0
KDC1 120330Z 32007KT 23/17 A301 RMK A01 T02290170  RH  069%=      5-min Rain = 0
KDC1 120331Z 32007KT 23/17 A301 RMK A01 T02290169  RH  069%=      5-min Rain = 0
KDC1 120332Z 32006KT 23/17 A3011 RMK A01 T02290168  RH  069%=      5-min Rain = 0
KDC1 120333Z 32006KT 23/17 A3011 RMK A01 T02290169  RH  069%=      5-min Rain = 0
KDC1 120334Z 32006KT 23/17 A3011 RMK A01 T02290168  RH  069%=      5-min Rain = 0
KDC1 120335Z 31005KT 23/17 A3011 RMK A01 T02280168  RH  069%=      5-min Rain = 0
KDC1 120336Z 31005KT 23/17 A3011 RMK A01 T02280169  RH  069%=      5-min Rain = 0
KDC1 120337Z 31005KT 23/17 A3011 RMK A01 T02270168  RH  069%=      5-min Rain = 0
KDC1 120338Z 31005KT 23/17 A3011 RMK A01 T02270169  RH  070%=      5-min Rain = 0
KDC1 120339Z 31005KT 23/17 A3011 RMK A01 T02270170  RH  070%=      5-min Rain = 0
KDC1 120340Z 31005KT 23/17 A3011 RMK A01 T02260171  RH  071%=      5-min Rain = 0
KDC1 120341Z 31005KT 23/17 A3011 RMK A01 T02250171  RH  071%=      5-min Rain = 0
KDC1 120342Z 31006KT 23/17 A3011 RMK A01 T02250172  RH  072%=      5-min Rain = 0
KDC1 120343Z 31006KT 23/17 A3011 RMK A01 T02250172  RH  072%=      5-min Rain = 0
KDC1 120344Z 31006KT 22/17 A3011 RMK A01 T02240172  RH  072%=      5-min Rain = 0
KDC1 120345Z 31006KT 22/17 A3011 RMK A01 T02240172  RH  072%=      5-min Rain = 0
KDC1 120346Z 32006KT 22/17 A3011 RMK A01 T02240171  RH  072%=      5-min Rain = 0
KDC1 120347Z 32007KT 23/17 A3011 RMK A01 T02250168  RH  070%=      5-min Rain = 0
KDC1 120348Z 32007KT 23/17 A3011 RMK A01 T02260167  RH  069%=      5-min Rain = 0
KDC1 120349Z 32006KT 23/17 A3011 RMK A01 T02270166  RH  068%=      5-min Rain = 0
KDC1 120350Z 32006KT 23/17 A3011 RMK A01 T02290166  RH  068%=      5-min Rain = 0
KDC1 120351Z 32006KT 23/17 A3011 RMK A01 T02300166  RH  067%=      5-min Rain = 0
KDC1 120352Z 32006KT 23/17 A3011 RMK A01 T02300166  RH  067%=      5-min Rain = 0
KDC1 120353Z 32006KT 23/17 A3011 RMK A01 T02300167  RH  067%=      5-min Rain = 0
KDC1 120354Z 32006KT 23/17 A3012 RMK A01 T02300165  RH  067%=      5-min Rain = 0
KDC1 120355Z 32006KT 23/16 A3012 RMK A01 T02310163  RH  066%=      5-min Rain = 0
KDC1 120356Z 32006KT 23/16 A3012 RMK A01 T02320164  RH  065%=      5-min Rain = 0
KDC1 120357Z 32006KT 23/17 A3012 RMK A01 T02320165  RH  066%=      5-min Rain = 0
KDC1 120358Z 32006KT 23/17 A3012 RMK A01 T02330167  RH  066%=      5-min Rain = 0
KDC1 120359Z 32006KT 23/17 A3012 RMK A01 T02320167  RH  067%=      5-min Rain = 0
KDC1 120400Z 32005KT 23/17 A3012 RMK A01 T02310167  RH  067%=      5-min Rain = 0
KDC1 120401Z 31005KT 23/17 A3012 RMK A01 T02300168  RH  068%=      5-min Rain = 0
KDC1 120402Z 31005KT 23/17 A3012 RMK A01 T02290169  RH  069%=      5-min Rain = 0
KDC1 120403Z 31005KT 23/17 A3012 RMK A01 T02280168  RH  069%=      5-min Rain = 0
KDC1 120404Z 31006KT 23/17 A3012 RMK A01 T02280167  RH  068%=      5-min Rain = 0
KDC1 120405Z 31006KT 23/17 A3012 RMK A01 T02280168  RH  069%=      5-min Rain = 0
KDC1 120406Z 31006KT 23/17 A3012 RMK A01 T02280168  RH  069%=      5-min Rain = 0
KDC1 120407Z 31006KT 23/17 A3012 RMK A01 T02280168  RH  069%=      5-min Rain = 0
KDC1 120408Z 30005KT 23/17 A3012 RMK A01 T02280170  RH  070%=      5-min Rain = 0
KDC1 120409Z 30005KT 23/17 A3012 RMK A01 T02270172  RH  071%=      5-min Rain = 0
KDC1 120410Z 31005KT 23/17 A3012 RMK A01 T02260172  RH  072%=      5-min Rain = 0
KDC1 120411Z 31005KT 23/17 A3012 RMK A01 T02250173  RH  073%=      5-min Rain = 0
KDC1 120412Z 31005KT 23/17 A3013 RMK A01 T02250174  RH  073%=      5-min Rain = 0
KDC1 120413Z 30005KT 23/17 A3013 RMK A01 T02250174  RH  073%=      5-min Rain = 0
KDC1 120414Z 30005KT 23/17 A3013 RMK A01 T02250173  RH  073%=      5-min Rain = 0
KDC1 120415Z 30005KT 23/17 A3013 RMK A01 T02250174  RH  073%=      5-min Rain = 0
KDC1 120416Z 30005KT 22/17 A3013 RMK A01 T02240173  RH  073%=      5-min Rain = 0
KDC1 120417Z 30005KT 22/17 A3013 RMK A01 T02240173  RH  073%=      5-min Rain = 0
KDC1 120418Z 30005KT 22/17 A3013 RMK A01 T02240174  RH  073%=      5-min Rain = 0
KDC1 120419Z 30005KT 22/17 A3013 RMK A01 T02240173  RH  073%=      5-min Rain = 0
KDC1 120420Z 30005KT 22/17 A3013 RMK A01 T02240173  RH  073%=      5-min Rain = 0
KDC1 120421Z 30006KT 22/17 A3013 RMK A01 T02240174  RH  073%=      5-min Rain = 0
KDC1 120422Z 30006KT 22/17 A3013 RMK A01 T02240174  RH  073%=      5-min Rain = 0
KDC1 120423Z 31007KT 22/17 A3013 RMK A01 T02230173  RH  073%=      5-min Rain = 0
KDC1 120424Z 31007KT 22/17 A3013 RMK A01 T02240173  RH  073%=      5-min Rain = 0
KDC1 120425Z 31006KT 22/17 A3013 RMK A01 T02240172  RH  072%=      5-min Rain = 0
KDC1 120426Z 31006KT 23/17 A3013 RMK A01 T02250172  RH  072%=      5-min Rain = 0
KDC1 120427Z 32006KT 23/17 A3013 RMK A01 T02260171  RH  071%=      5-min Rain = 0
KDC1 120428Z 32005KT 23/17 A3013 RMK A01 T02260172  RH  071%=      5-min Rain = 0
KDC1 120429Z 32005KT 23/17 A3013 RMK A01 T02260172  RH  071%=      5-min Rain = 0
KDC1 120430Z 32005KT 23/17 A3013 RMK A01 T02260172  RH  071%=      5-min Rain = 0
KDC1 120431Z 33004KT 23/17 A3013 RMK A01 T02260172  RH  071%=      5-min Rain = 0
KDC1 120432Z 33004KT 23/17 A3013 RMK A01 T02260172  RH  072%=      5-min Rain = 0
KDC1 120433Z 33005KT 23/17 A3013 RMK A01 T02260173  RH  072%=      5-min Rain = 0
KDC1 120434Z 33005KT 23/17 A3013 RMK A01 T02260173  RH  072%=      5-min Rain = 0
KDC1 120435Z 33005KT 23/17 A3013 RMK A01 T02260173  RH  072%=      5-min Rain = 0
KDC1 120436Z 33005KT 23/17 A3013 RMK A01 T02270174  RH  072%=      5-min Rain = 0
KDC1 120437Z 32005KT 23/18 A3013 RMK A01 T02270176  RH  073%=      5-min Rain = 0
KDC1 120438Z 32005KT 23/18 A3013 RMK A01 T02260177  RH  074%=      5-min Rain = 0
KDC1 120439Z 32005KT 23/18 A3013 RMK A01 T02260178  RH  074%=      5-min Rain = 0
KDC1 120440Z 32004KT 23/18 A3013 RMK A01 T02250177  RH  075%=      5-min Rain = 0
KDC1 120441Z 32004KT 22/18 A3013 RMK A01 T02240177  RH  074%=      5-min Rain = 0
KDC1 120442Z 33004KT 22/18 A3013 RMK A01 T02240175  RH  074%=      5-min Rain = 0
KDC1 120443Z 33004KT 23/17 A3013 RMK A01 T02250174  RH  073%=      5-min Rain = 0
KDC1 120444Z 33004KT 23/17 A3013 RMK A01 T02260174  RH  072%=      5-min Rain = 0
KDC1 120445Z 33004KT 23/17 A3013 RMK A01 T02260172  RH  072%=      5-min Rain = 0
KDC1 120446Z 33004KT 23/17 A3013 RMK A01 T02270172  RH  071%=      5-min Rain = 0
KDC1 120447Z 33004KT 23/17 A3013 RMK A01 T02270173  RH  072%=      5-min Rain = 0
KDC1 120448Z 33004KT 23/18 A3013 RMK A01 T02270175  RH  072%=      5-min Rain = 0
KDC1 120449Z 33004KT 23/18 A3013 RMK A01 T02270177  RH  073%=      5-min Rain = 0
KDC1 120450Z 33004KT 23/18 A3013 RMK A01 T02260178  RH  074%=      5-min Rain = 0
KDC1 120451Z 33005KT 23/18 A3013 RMK A01 T02250178  RH  074%=      5-min Rain = 0
KDC1 120452Z 33004KT 23/18 A3013 RMK A01 T02250177  RH  074%=      5-min Rain = 0
KDC1 120453Z 33004KT 23/18 A3013 RMK A01 T02250176  RH  074%=      5-min Rain = 0
KDC1 120454Z 32004KT 23/18 A3013 RMK A01 T02250175  RH  073%=      5-min Rain = 0
KDC1 120455Z 33005KT 23/17 A3013 RMK A01 T02260174  RH  073%=      5-min Rain = 0
KDC1 120456Z 33005KT 23/17 A3013 RMK A01 T02260174  RH  073%=      5-min Rain = 0
KDC1 120457Z 32005KT 23/18 A3013 RMK A01 T02270175  RH  072%=      5-min Rain = 0
KDC1 120458Z 32005KT 23/17 A3013 RMK A01 T02270174  RH  072%=      5-min Rain = 0
KDC1 120459Z 32005KT 23/17 A3013 RMK A01 T02270174  RH  072%=      5-min Rain = 0

Page generated in 0.0335 seconds.